<?xml version="1.0" encoding="UTF-8" standalone="no" ?>
<gpx xmlns="http://www.topografix.com/GPX/1/1" xmlns:xsi="http://www.w3.org/2001/XMLSchema-instance" xsi:schemaLocation="http://www.topografix.com/GPX/1/1 http://www.topografix.com/GPX/1/1/gpx.xsd" version="1.1" creator="VisuGPX - https://www.visugpx.com">
  <metadata>
    <name>Roche noire </name>
    <desc><![CDATA[

]]></desc>
  </metadata>
  <trk>
    <name><![CDATA[Roche noire ]]></name>
    <extensions>
      <line xmlns="http://www.topografix.com/GPX/gpx_style/0/2">
        <color>0000FF</color>
        <width>4</width>
      </line>
    </extensions>
    <trkseg>
      <trkpt lat="45.26449" lon="6.01558">
        <ele>1569.4549560547</ele>
        <time>2017-03-08T18:19:00Z</time>
      </trkpt>
      <trkpt lat="45.26503" lon="6.01589">
        <ele>1615.4549560547</ele>
        <time>2017-03-08T18:19:30Z</time>
      </trkpt>
      <trkpt lat="45.26503" lon="6.01598">
        <ele>1597.4549560547</ele>
        <time>2017-03-08T18:19:32Z</time>
      </trkpt>
      <trkpt lat="45.26503" lon="6.01606">
        <ele>1586.4549560547</ele>
        <time>2017-03-08T18:19:35Z</time>
      </trkpt>
      <trkpt lat="45.26503" lon="6.01613">
        <ele>1583.4549560547</ele>
        <time>2017-03-08T18:19:38Z</time>
      </trkpt>
      <trkpt lat="45.26504" lon="6.01619">
        <ele>1580.4549560547</ele>
        <time>2017-03-08T18:19:43Z</time>
      </trkpt>
      <trkpt lat="45.26506" lon="6.01625">
        <ele>1577.4549560547</ele>
        <time>2017-03-08T18:19:47Z</time>
      </trkpt>
      <trkpt lat="45.26507" lon="6.01632">
        <ele>1579.4549560547</ele>
        <time>2017-03-08T18:19:53Z</time>
      </trkpt>
      <trkpt lat="45.2651" lon="6.01639">
        <ele>1580.4549560547</ele>
        <time>2017-03-08T18:19:57Z</time>
      </trkpt>
      <trkpt lat="45.2651" lon="6.01646">
        <ele>1580.4549560547</ele>
        <time>2017-03-08T18:20:01Z</time>
      </trkpt>
      <trkpt lat="45.26511" lon="6.01653">
        <ele>1582.4549560547</ele>
        <time>2017-03-08T18:20:05Z</time>
      </trkpt>
      <trkpt lat="45.2651" lon="6.0166">
        <ele>1580.4549560547</ele>
        <time>2017-03-08T18:20:09Z</time>
      </trkpt>
      <trkpt lat="45.26511" lon="6.01668">
        <ele>1581.4549560547</ele>
        <time>2017-03-08T18:20:14Z</time>
      </trkpt>
      <trkpt lat="45.26515" lon="6.01675">
        <ele>1582.4549560547</ele>
        <time>2017-03-08T18:20:17Z</time>
      </trkpt>
      <trkpt lat="45.26515" lon="6.01682">
        <ele>1583.4549560547</ele>
        <time>2017-03-08T18:20:21Z</time>
      </trkpt>
      <trkpt lat="45.26512" lon="6.01687">
        <ele>1582.4549560547</ele>
        <time>2017-03-08T18:20:26Z</time>
      </trkpt>
      <trkpt lat="45.26513" lon="6.01694">
        <ele>1579.4549560547</ele>
        <time>2017-03-08T18:20:32Z</time>
      </trkpt>
      <trkpt lat="45.26515" lon="6.017">
        <ele>1579.4549560547</ele>
        <time>2017-03-08T18:20:37Z</time>
      </trkpt>
      <trkpt lat="45.26516" lon="6.01709">
        <ele>1579.4549560547</ele>
        <time>2017-03-08T18:20:44Z</time>
      </trkpt>
      <trkpt lat="45.26513" lon="6.01716">
        <ele>1580.4549560547</ele>
        <time>2017-03-08T18:20:49Z</time>
      </trkpt>
      <trkpt lat="45.26512" lon="6.01722">
        <ele>1580.4549560547</ele>
        <time>2017-03-08T18:20:53Z</time>
      </trkpt>
      <trkpt lat="45.26512" lon="6.01729">
        <ele>1581.4549560547</ele>
        <time>2017-03-08T18:20:58Z</time>
      </trkpt>
      <trkpt lat="45.26513" lon="6.01736">
        <ele>1580.4549560547</ele>
        <time>2017-03-08T18:21:03Z</time>
      </trkpt>
      <trkpt lat="45.26513" lon="6.01742">
        <ele>1581.4549560547</ele>
        <time>2017-03-08T18:21:08Z</time>
      </trkpt>
      <trkpt lat="45.26514" lon="6.0175">
        <ele>1583.4549560547</ele>
        <time>2017-03-08T18:21:13Z</time>
      </trkpt>
      <trkpt lat="45.26512" lon="6.01756">
        <ele>1584.4549560547</ele>
        <time>2017-03-08T18:21:17Z</time>
      </trkpt>
      <trkpt lat="45.2651" lon="6.01763">
        <ele>1586.4549560547</ele>
        <time>2017-03-08T18:21:22Z</time>
      </trkpt>
      <trkpt lat="45.2651" lon="6.01769">
        <ele>1587.4549560547</ele>
        <time>2017-03-08T18:21:27Z</time>
      </trkpt>
      <trkpt lat="45.26507" lon="6.01774">
        <ele>1588.4549560547</ele>
        <time>2017-03-08T18:21:31Z</time>
      </trkpt>
      <trkpt lat="45.26507" lon="6.0178">
        <ele>1589.4549560547</ele>
        <time>2017-03-08T18:21:36Z</time>
      </trkpt>
      <trkpt lat="45.26509" lon="6.01786">
        <ele>1590.4549560547</ele>
        <time>2017-03-08T18:21:42Z</time>
      </trkpt>
      <trkpt lat="45.26508" lon="6.01793">
        <ele>1591.4549560547</ele>
        <time>2017-03-08T18:21:56Z</time>
      </trkpt>
      <trkpt lat="45.26509" lon="6.01799">
        <ele>1590.4549560547</ele>
        <time>2017-03-08T18:22:01Z</time>
      </trkpt>
      <trkpt lat="45.26507" lon="6.01806">
        <ele>1593.4549560547</ele>
        <time>2017-03-08T18:22:10Z</time>
      </trkpt>
      <trkpt lat="45.26507" lon="6.01814">
        <ele>1590.4549560547</ele>
        <time>2017-03-08T18:22:16Z</time>
      </trkpt>
      <trkpt lat="45.26508" lon="6.01821">
        <ele>1589.4560546875</ele>
        <time>2017-03-08T18:22:22Z</time>
      </trkpt>
      <trkpt lat="45.26506" lon="6.01828">
        <ele>1590.4560546875</ele>
        <time>2017-03-08T18:22:28Z</time>
      </trkpt>
      <trkpt lat="45.26503" lon="6.01834">
        <ele>1594.4560546875</ele>
        <time>2017-03-08T18:22:33Z</time>
      </trkpt>
      <trkpt lat="45.26503" lon="6.01842">
        <ele>1593.4560546875</ele>
        <time>2017-03-08T18:22:39Z</time>
      </trkpt>
      <trkpt lat="45.26501" lon="6.01849">
        <ele>1594.4560546875</ele>
        <time>2017-03-08T18:22:45Z</time>
      </trkpt>
      <trkpt lat="45.265" lon="6.01856">
        <ele>1595.4560546875</ele>
        <time>2017-03-08T18:22:50Z</time>
      </trkpt>
      <trkpt lat="45.26499" lon="6.01863">
        <ele>1597.4560546875</ele>
        <time>2017-03-08T18:22:56Z</time>
      </trkpt>
      <trkpt lat="45.26498" lon="6.01869">
        <ele>1598.4560546875</ele>
        <time>2017-03-08T18:23:02Z</time>
      </trkpt>
      <trkpt lat="45.26497" lon="6.01876">
        <ele>1598.4560546875</ele>
        <time>2017-03-08T18:23:09Z</time>
      </trkpt>
      <trkpt lat="45.26497" lon="6.01883">
        <ele>1598.4560546875</ele>
        <time>2017-03-08T18:23:16Z</time>
      </trkpt>
      <trkpt lat="45.26498" lon="6.01889">
        <ele>1602.4560546875</ele>
        <time>2017-03-08T18:23:22Z</time>
      </trkpt>
      <trkpt lat="45.26496" lon="6.01895">
        <ele>1606.4560546875</ele>
        <time>2017-03-08T18:23:27Z</time>
      </trkpt>
      <trkpt lat="45.26495" lon="6.01902">
        <ele>1607.4560546875</ele>
        <time>2017-03-08T18:23:33Z</time>
      </trkpt>
      <trkpt lat="45.26493" lon="6.01909">
        <ele>1608.4560546875</ele>
        <time>2017-03-08T18:23:38Z</time>
      </trkpt>
      <trkpt lat="45.26495" lon="6.01916">
        <ele>1606.4560546875</ele>
        <time>2017-03-08T18:23:46Z</time>
      </trkpt>
      <trkpt lat="45.26495" lon="6.01924">
        <ele>1610.4560546875</ele>
        <time>2017-03-08T18:23:51Z</time>
      </trkpt>
      <trkpt lat="45.26496" lon="6.0193">
        <ele>1612.4560546875</ele>
        <time>2017-03-08T18:23:58Z</time>
      </trkpt>
      <trkpt lat="45.26495" lon="6.01936">
        <ele>1612.4560546875</ele>
        <time>2017-03-08T18:24:04Z</time>
      </trkpt>
      <trkpt lat="45.26493" lon="6.01943">
        <ele>1614.4560546875</ele>
        <time>2017-03-08T18:24:12Z</time>
      </trkpt>
      <trkpt lat="45.26492" lon="6.0195">
        <ele>1612.4560546875</ele>
        <time>2017-03-08T18:24:21Z</time>
      </trkpt>
      <trkpt lat="45.26494" lon="6.01956">
        <ele>1616.4560546875</ele>
        <time>2017-03-08T18:24:30Z</time>
      </trkpt>
      <trkpt lat="45.26493" lon="6.01963">
        <ele>1618.4560546875</ele>
        <time>2017-03-08T18:24:37Z</time>
      </trkpt>
      <trkpt lat="45.26492" lon="6.0197">
        <ele>1621.4560546875</ele>
        <time>2017-03-08T18:24:44Z</time>
      </trkpt>
      <trkpt lat="45.26489" lon="6.01975">
        <ele>1623.4560546875</ele>
        <time>2017-03-08T18:24:49Z</time>
      </trkpt>
      <trkpt lat="45.26487" lon="6.01981">
        <ele>1623.4560546875</ele>
        <time>2017-03-08T18:24:56Z</time>
      </trkpt>
      <trkpt lat="45.26483" lon="6.01987">
        <ele>1624.4560546875</ele>
        <time>2017-03-08T18:25:02Z</time>
      </trkpt>
      <trkpt lat="45.26487" lon="6.01992">
        <ele>1625.4560546875</ele>
        <time>2017-03-08T18:25:12Z</time>
      </trkpt>
      <trkpt lat="45.26492" lon="6.01994">
        <ele>1628.4560546875</ele>
        <time>2017-03-08T18:25:16Z</time>
      </trkpt>
      <trkpt lat="45.26497" lon="6.01995">
        <ele>1630.4560546875</ele>
        <time>2017-03-08T18:25:27Z</time>
      </trkpt>
      <trkpt lat="45.26501" lon="6.02">
        <ele>1629.4560546875</ele>
        <time>2017-03-08T18:25:31Z</time>
      </trkpt>
      <trkpt lat="45.26505" lon="6.02004">
        <ele>1630.4560546875</ele>
        <time>2017-03-08T18:25:36Z</time>
      </trkpt>
      <trkpt lat="45.26506" lon="6.02011">
        <ele>1592.4560546875</ele>
        <time>2017-03-08T18:25:44Z</time>
      </trkpt>
      <trkpt lat="45.26505" lon="6.02019">
        <ele>1620.4560546875</ele>
        <time>2017-03-08T18:25:50Z</time>
      </trkpt>
      <trkpt lat="45.26504" lon="6.02027">
        <ele>1627.4560546875</ele>
        <time>2017-03-08T18:25:57Z</time>
      </trkpt>
      <trkpt lat="45.26503" lon="6.02033">
        <ele>1634.4560546875</ele>
        <time>2017-03-08T18:26:05Z</time>
      </trkpt>
      <trkpt lat="45.26499" lon="6.02038">
        <ele>1637.4560546875</ele>
        <time>2017-03-08T18:26:18Z</time>
      </trkpt>
      <trkpt lat="45.26499" lon="6.02046">
        <ele>1635.4560546875</ele>
        <time>2017-03-08T18:26:27Z</time>
      </trkpt>
      <trkpt lat="45.26501" lon="6.02052">
        <ele>1637.4560546875</ele>
        <time>2017-03-08T18:26:33Z</time>
      </trkpt>
      <trkpt lat="45.26505" lon="6.02057">
        <ele>1639.4560546875</ele>
        <time>2017-03-08T18:26:40Z</time>
      </trkpt>
      <trkpt lat="45.26506" lon="6.02063">
        <ele>1640.4560546875</ele>
        <time>2017-03-08T18:26:44Z</time>
      </trkpt>
      <trkpt lat="45.26509" lon="6.02069">
        <ele>1641.4560546875</ele>
        <time>2017-03-08T18:26:51Z</time>
      </trkpt>
      <trkpt lat="45.26513" lon="6.02074">
        <ele>1644.4560546875</ele>
        <time>2017-03-08T18:26:57Z</time>
      </trkpt>
      <trkpt lat="45.26516" lon="6.02079">
        <ele>1645.4560546875</ele>
        <time>2017-03-08T18:27:02Z</time>
      </trkpt>
      <trkpt lat="45.2652" lon="6.02081">
        <ele>1648.4560546875</ele>
        <time>2017-03-08T18:27:05Z</time>
      </trkpt>
      <trkpt lat="45.26522" lon="6.02087">
        <ele>1650.4560546875</ele>
        <time>2017-03-08T18:27:12Z</time>
      </trkpt>
      <trkpt lat="45.26527" lon="6.02091">
        <ele>1651.4560546875</ele>
        <time>2017-03-08T18:27:18Z</time>
      </trkpt>
      <trkpt lat="45.26529" lon="6.02097">
        <ele>1652.4560546875</ele>
        <time>2017-03-08T18:27:26Z</time>
      </trkpt>
      <trkpt lat="45.26533" lon="6.02101">
        <ele>1652.4560546875</ele>
        <time>2017-03-08T18:27:36Z</time>
      </trkpt>
      <trkpt lat="45.26536" lon="6.02106">
        <ele>1655.4560546875</ele>
        <time>2017-03-08T18:27:42Z</time>
      </trkpt>
      <trkpt lat="45.26539" lon="6.02111">
        <ele>1658.4560546875</ele>
        <time>2017-03-08T18:27:48Z</time>
      </trkpt>
      <trkpt lat="45.26543" lon="6.02115">
        <ele>1659.4560546875</ele>
        <time>2017-03-08T18:27:54Z</time>
      </trkpt>
      <trkpt lat="45.26547" lon="6.02119">
        <ele>1660.4560546875</ele>
        <time>2017-03-08T18:28:00Z</time>
      </trkpt>
      <trkpt lat="45.26551" lon="6.02125">
        <ele>1664.4560546875</ele>
        <time>2017-03-08T18:28:07Z</time>
      </trkpt>
      <trkpt lat="45.26552" lon="6.02131">
        <ele>1662.4560546875</ele>
        <time>2017-03-08T18:28:22Z</time>
      </trkpt>
      <trkpt lat="45.26556" lon="6.02136">
        <ele>1664.4560546875</ele>
        <time>2017-03-08T18:28:31Z</time>
      </trkpt>
      <trkpt lat="45.26559" lon="6.02141">
        <ele>1666.4560546875</ele>
        <time>2017-03-08T18:28:37Z</time>
      </trkpt>
      <trkpt lat="45.26563" lon="6.02146">
        <ele>1671.4560546875</ele>
        <time>2017-03-08T18:28:44Z</time>
      </trkpt>
      <trkpt lat="45.26567" lon="6.0215">
        <ele>1669.4560546875</ele>
        <time>2017-03-08T18:28:50Z</time>
      </trkpt>
      <trkpt lat="45.26571" lon="6.02155">
        <ele>1670.4560546875</ele>
        <time>2017-03-08T18:28:55Z</time>
      </trkpt>
      <trkpt lat="45.26573" lon="6.02161">
        <ele>1671.4560546875</ele>
        <time>2017-03-08T18:29:02Z</time>
      </trkpt>
      <trkpt lat="45.26575" lon="6.02167">
        <ele>1675.4560546875</ele>
        <time>2017-03-08T18:29:13Z</time>
      </trkpt>
      <trkpt lat="45.26574" lon="6.02174">
        <ele>1675.4560546875</ele>
        <time>2017-03-08T18:29:19Z</time>
      </trkpt>
      <trkpt lat="45.26577" lon="6.0218">
        <ele>1676.4560546875</ele>
        <time>2017-03-08T18:29:27Z</time>
      </trkpt>
      <trkpt lat="45.26578" lon="6.02186">
        <ele>1679.4560546875</ele>
        <time>2017-03-08T18:29:31Z</time>
      </trkpt>
      <trkpt lat="45.2658" lon="6.02192">
        <ele>1680.4560546875</ele>
        <time>2017-03-08T18:29:37Z</time>
      </trkpt>
      <trkpt lat="45.26582" lon="6.02199">
        <ele>1683.4560546875</ele>
        <time>2017-03-08T18:29:47Z</time>
      </trkpt>
      <trkpt lat="45.26583" lon="6.02206">
        <ele>1684.4560546875</ele>
        <time>2017-03-08T18:29:50Z</time>
      </trkpt>
      <trkpt lat="45.26583" lon="6.02213">
        <ele>1687.4560546875</ele>
        <time>2017-03-08T18:29:56Z</time>
      </trkpt>
      <trkpt lat="45.26582" lon="6.02219">
        <ele>1689.4560546875</ele>
        <time>2017-03-08T18:35:19Z</time>
      </trkpt>
      <trkpt lat="45.26585" lon="6.02224">
        <ele>1690.4560546875</ele>
        <time>2017-03-08T18:35:25Z</time>
      </trkpt>
      <trkpt lat="45.26587" lon="6.02231">
        <ele>1691.4560546875</ele>
        <time>2017-03-08T18:35:32Z</time>
      </trkpt>
      <trkpt lat="45.26589" lon="6.02237">
        <ele>1692.4560546875</ele>
        <time>2017-03-08T18:35:41Z</time>
      </trkpt>
      <trkpt lat="45.26591" lon="6.02244">
        <ele>1693.4560546875</ele>
        <time>2017-03-08T18:35:51Z</time>
      </trkpt>
      <trkpt lat="45.26593" lon="6.02251">
        <ele>1695.4560546875</ele>
        <time>2017-03-08T18:36:00Z</time>
      </trkpt>
      <trkpt lat="45.26595" lon="6.02257">
        <ele>1694.4560546875</ele>
        <time>2017-03-08T18:36:06Z</time>
      </trkpt>
      <trkpt lat="45.26596" lon="6.02264">
        <ele>1695.4560546875</ele>
        <time>2017-03-08T18:36:16Z</time>
      </trkpt>
      <trkpt lat="45.26599" lon="6.0227">
        <ele>1694.4560546875</ele>
        <time>2017-03-08T18:36:21Z</time>
      </trkpt>
      <trkpt lat="45.26599" lon="6.02277">
        <ele>1696.4560546875</ele>
        <time>2017-03-08T18:36:30Z</time>
      </trkpt>
      <trkpt lat="45.26602" lon="6.02282">
        <ele>1697.4560546875</ele>
        <time>2017-03-08T18:36:37Z</time>
      </trkpt>
      <trkpt lat="45.26605" lon="6.02288">
        <ele>1699.4560546875</ele>
        <time>2017-03-08T18:36:47Z</time>
      </trkpt>
      <trkpt lat="45.26606" lon="6.02294">
        <ele>1701.4560546875</ele>
        <time>2017-03-08T18:36:54Z</time>
      </trkpt>
      <trkpt lat="45.2661" lon="6.02299">
        <ele>1704.4560546875</ele>
        <time>2017-03-08T18:37:02Z</time>
      </trkpt>
      <trkpt lat="45.26611" lon="6.02305">
        <ele>1708.4560546875</ele>
        <time>2017-03-08T18:37:09Z</time>
      </trkpt>
      <trkpt lat="45.26614" lon="6.02311">
        <ele>1710.4560546875</ele>
        <time>2017-03-08T18:37:16Z</time>
      </trkpt>
      <trkpt lat="45.26614" lon="6.02319">
        <ele>1711.4560546875</ele>
        <time>2017-03-08T18:37:21Z</time>
      </trkpt>
      <trkpt lat="45.26614" lon="6.02326">
        <ele>1713.4560546875</ele>
        <time>2017-03-08T18:37:38Z</time>
      </trkpt>
      <trkpt lat="45.26613" lon="6.02332">
        <ele>1715.4560546875</ele>
        <time>2017-03-08T18:37:50Z</time>
      </trkpt>
      <trkpt lat="45.26612" lon="6.02339">
        <ele>1716.4560546875</ele>
        <time>2017-03-08T18:37:56Z</time>
      </trkpt>
      <trkpt lat="45.26612" lon="6.02346">
        <ele>1718.4560546875</ele>
        <time>2017-03-08T18:38:05Z</time>
      </trkpt>
      <trkpt lat="45.26612" lon="6.02353">
        <ele>1717.4560546875</ele>
        <time>2017-03-08T18:38:13Z</time>
      </trkpt>
      <trkpt lat="45.26613" lon="6.02361">
        <ele>1717.4560546875</ele>
        <time>2017-03-08T18:38:20Z</time>
      </trkpt>
      <trkpt lat="45.26613" lon="6.02367">
        <ele>1719.4560546875</ele>
        <time>2017-03-08T18:38:24Z</time>
      </trkpt>
      <trkpt lat="45.26614" lon="6.02374">
        <ele>1721.4560546875</ele>
        <time>2017-03-08T18:38:29Z</time>
      </trkpt>
      <trkpt lat="45.26615" lon="6.02382">
        <ele>1723.4560546875</ele>
        <time>2017-03-08T18:38:37Z</time>
      </trkpt>
      <trkpt lat="45.26614" lon="6.02389">
        <ele>1728.4560546875</ele>
        <time>2017-03-08T18:38:43Z</time>
      </trkpt>
      <trkpt lat="45.26614" lon="6.02397">
        <ele>1729.45703125</ele>
        <time>2017-03-08T18:38:55Z</time>
      </trkpt>
      <trkpt lat="45.26614" lon="6.02404">
        <ele>1730.45703125</ele>
        <time>2017-03-08T18:39:05Z</time>
      </trkpt>
      <trkpt lat="45.26615" lon="6.0241">
        <ele>1732.45703125</ele>
        <time>2017-03-08T18:39:13Z</time>
      </trkpt>
      <trkpt lat="45.26615" lon="6.02417">
        <ele>1732.45703125</ele>
        <time>2017-03-08T18:39:22Z</time>
      </trkpt>
      <trkpt lat="45.26614" lon="6.02423">
        <ele>1734.45703125</ele>
        <time>2017-03-08T18:39:29Z</time>
      </trkpt>
      <trkpt lat="45.26615" lon="6.0243">
        <ele>1733.45703125</ele>
        <time>2017-03-08T18:39:38Z</time>
      </trkpt>
      <trkpt lat="45.26614" lon="6.02437">
        <ele>1735.45703125</ele>
        <time>2017-03-08T18:39:44Z</time>
      </trkpt>
      <trkpt lat="45.26613" lon="6.02444">
        <ele>1736.45703125</ele>
        <time>2017-03-08T18:39:52Z</time>
      </trkpt>
      <trkpt lat="45.26612" lon="6.0245">
        <ele>1738.45703125</ele>
        <time>2017-03-08T18:40:00Z</time>
      </trkpt>
      <trkpt lat="45.26611" lon="6.02456">
        <ele>1740.45703125</ele>
        <time>2017-03-08T18:40:09Z</time>
      </trkpt>
      <trkpt lat="45.26611" lon="6.02463">
        <ele>1740.45703125</ele>
        <time>2017-03-08T18:40:17Z</time>
      </trkpt>
      <trkpt lat="45.2661" lon="6.02471">
        <ele>1743.45703125</ele>
        <time>2017-03-08T18:40:29Z</time>
      </trkpt>
      <trkpt lat="45.26611" lon="6.02477">
        <ele>1746.45703125</ele>
        <time>2017-03-08T18:40:40Z</time>
      </trkpt>
      <trkpt lat="45.26612" lon="6.02483">
        <ele>1747.45703125</ele>
        <time>2017-03-08T18:40:46Z</time>
      </trkpt>
      <trkpt lat="45.26612" lon="6.0249">
        <ele>1747.45703125</ele>
        <time>2017-03-08T18:40:52Z</time>
      </trkpt>
      <trkpt lat="45.26612" lon="6.02497">
        <ele>1748.45703125</ele>
        <time>2017-03-08T18:40:57Z</time>
      </trkpt>
      <trkpt lat="45.26614" lon="6.02504">
        <ele>1751.45703125</ele>
        <time>2017-03-08T18:41:05Z</time>
      </trkpt>
      <trkpt lat="45.26614" lon="6.02512">
        <ele>1754.45703125</ele>
        <time>2017-03-08T18:41:11Z</time>
      </trkpt>
      <trkpt lat="45.26613" lon="6.0252">
        <ele>1757.45703125</ele>
        <time>2017-03-08T18:41:18Z</time>
      </trkpt>
      <trkpt lat="45.26615" lon="6.02525">
        <ele>1757.45703125</ele>
        <time>2017-03-08T18:41:31Z</time>
      </trkpt>
      <trkpt lat="45.26616" lon="6.02533">
        <ele>1754.45703125</ele>
        <time>2017-03-08T18:41:36Z</time>
      </trkpt>
      <trkpt lat="45.26615" lon="6.02541">
        <ele>1754.45703125</ele>
        <time>2017-03-08T18:41:43Z</time>
      </trkpt>
      <trkpt lat="45.26615" lon="6.02547">
        <ele>1756.45703125</ele>
        <time>2017-03-08T18:41:58Z</time>
      </trkpt>
      <trkpt lat="45.26617" lon="6.02555">
        <ele>1758.45703125</ele>
        <time>2017-03-08T18:42:12Z</time>
      </trkpt>
      <trkpt lat="45.26617" lon="6.02561">
        <ele>1759.45703125</ele>
        <time>2017-03-08T18:42:19Z</time>
      </trkpt>
      <trkpt lat="45.26616" lon="6.02568">
        <ele>1760.45703125</ele>
        <time>2017-03-08T18:42:24Z</time>
      </trkpt>
      <trkpt lat="45.26617" lon="6.02575">
        <ele>1761.45703125</ele>
        <time>2017-03-08T18:42:30Z</time>
      </trkpt>
      <trkpt lat="45.2662" lon="6.0258">
        <ele>1760.45703125</ele>
        <time>2017-03-08T18:42:36Z</time>
      </trkpt>
      <trkpt lat="45.26619" lon="6.02587">
        <ele>1761.45703125</ele>
        <time>2017-03-08T18:42:42Z</time>
      </trkpt>
      <trkpt lat="45.26617" lon="6.02594">
        <ele>1763.45703125</ele>
        <time>2017-03-08T18:42:50Z</time>
      </trkpt>
      <trkpt lat="45.26616" lon="6.02601">
        <ele>1769.45703125</ele>
        <time>2017-03-08T18:42:55Z</time>
      </trkpt>
      <trkpt lat="45.26614" lon="6.02608">
        <ele>1744.45703125</ele>
        <time>2017-03-08T18:43:02Z</time>
      </trkpt>
      <trkpt lat="45.26615" lon="6.02616">
        <ele>1768.45703125</ele>
        <time>2017-03-08T18:43:18Z</time>
      </trkpt>
      <trkpt lat="45.26618" lon="6.0262">
        <ele>1770.45703125</ele>
        <time>2017-03-08T18:45:17Z</time>
      </trkpt>
      <trkpt lat="45.26623" lon="6.02621">
        <ele>1771.45703125</ele>
        <time>2017-03-08T18:45:21Z</time>
      </trkpt>
      <trkpt lat="45.26628" lon="6.02621">
        <ele>1772.45703125</ele>
        <time>2017-03-08T18:45:26Z</time>
      </trkpt>
      <trkpt lat="45.26632" lon="6.02621">
        <ele>1771.45703125</ele>
        <time>2017-03-08T18:45:28Z</time>
      </trkpt>
      <trkpt lat="45.26637" lon="6.02623">
        <ele>1771.45703125</ele>
        <time>2017-03-08T18:45:36Z</time>
      </trkpt>
      <trkpt lat="45.26641" lon="6.02627">
        <ele>1773.45703125</ele>
        <time>2017-03-08T18:45:41Z</time>
      </trkpt>
      <trkpt lat="45.26646" lon="6.02631">
        <ele>1773.45703125</ele>
        <time>2017-03-08T18:45:51Z</time>
      </trkpt>
      <trkpt lat="45.26649" lon="6.02636">
        <ele>1776.45703125</ele>
        <time>2017-03-08T18:45:59Z</time>
      </trkpt>
      <trkpt lat="45.26652" lon="6.02641">
        <ele>1776.45703125</ele>
        <time>2017-03-08T18:46:04Z</time>
      </trkpt>
      <trkpt lat="45.26655" lon="6.02646">
        <ele>1777.45703125</ele>
        <time>2017-03-08T18:46:09Z</time>
      </trkpt>
      <trkpt lat="45.26659" lon="6.02652">
        <ele>1778.45703125</ele>
        <time>2017-03-08T18:46:14Z</time>
      </trkpt>
      <trkpt lat="45.26661" lon="6.02658">
        <ele>1780.45703125</ele>
        <time>2017-03-08T18:46:20Z</time>
      </trkpt>
      <trkpt lat="45.26663" lon="6.02664">
        <ele>1778.45703125</ele>
        <time>2017-03-08T18:46:26Z</time>
      </trkpt>
      <trkpt lat="45.26663" lon="6.02672">
        <ele>1777.45703125</ele>
        <time>2017-03-08T18:46:33Z</time>
      </trkpt>
      <trkpt lat="45.26663" lon="6.02679">
        <ele>1779.45703125</ele>
        <time>2017-03-08T18:46:37Z</time>
      </trkpt>
      <trkpt lat="45.26664" lon="6.02685">
        <ele>1781.45703125</ele>
        <time>2017-03-08T18:46:43Z</time>
      </trkpt>
      <trkpt lat="45.26666" lon="6.02691">
        <ele>1782.45703125</ele>
        <time>2017-03-08T18:46:47Z</time>
      </trkpt>
      <trkpt lat="45.26667" lon="6.02697">
        <ele>1782.45703125</ele>
        <time>2017-03-08T18:46:51Z</time>
      </trkpt>
      <trkpt lat="45.26671" lon="6.02702">
        <ele>1785.45703125</ele>
        <time>2017-03-08T18:46:56Z</time>
      </trkpt>
      <trkpt lat="45.26674" lon="6.02708">
        <ele>1786.45703125</ele>
        <time>2017-03-08T18:47:01Z</time>
      </trkpt>
      <trkpt lat="45.26675" lon="6.02716">
        <ele>1786.45703125</ele>
        <time>2017-03-08T18:47:07Z</time>
      </trkpt>
      <trkpt lat="45.2668" lon="6.02722">
        <ele>1788.45703125</ele>
        <time>2017-03-08T18:47:12Z</time>
      </trkpt>
      <trkpt lat="45.26681" lon="6.02728">
        <ele>1788.45703125</ele>
        <time>2017-03-08T18:47:17Z</time>
      </trkpt>
      <trkpt lat="45.26683" lon="6.02734">
        <ele>1788.45703125</ele>
        <time>2017-03-08T18:47:22Z</time>
      </trkpt>
      <trkpt lat="45.26682" lon="6.02741">
        <ele>1787.45703125</ele>
        <time>2017-03-08T18:47:26Z</time>
      </trkpt>
      <trkpt lat="45.26685" lon="6.02746">
        <ele>1787.45703125</ele>
        <time>2017-03-08T18:47:30Z</time>
      </trkpt>
      <trkpt lat="45.26684" lon="6.02752">
        <ele>1787.45703125</ele>
        <time>2017-03-08T18:47:35Z</time>
      </trkpt>
      <trkpt lat="45.26687" lon="6.02759">
        <ele>1789.45703125</ele>
        <time>2017-03-08T18:47:40Z</time>
      </trkpt>
      <trkpt lat="45.26689" lon="6.02765">
        <ele>1791.45703125</ele>
        <time>2017-03-08T18:47:45Z</time>
      </trkpt>
      <trkpt lat="45.2669" lon="6.02772">
        <ele>1790.45703125</ele>
        <time>2017-03-08T18:47:50Z</time>
      </trkpt>
      <trkpt lat="45.26693" lon="6.02778">
        <ele>1790.45703125</ele>
        <time>2017-03-08T18:47:55Z</time>
      </trkpt>
      <trkpt lat="45.26696" lon="6.02782">
        <ele>1792.45703125</ele>
        <time>2017-03-08T18:47:59Z</time>
      </trkpt>
      <trkpt lat="45.26699" lon="6.02789">
        <ele>1794.45703125</ele>
        <time>2017-03-08T18:48:04Z</time>
      </trkpt>
      <trkpt lat="45.267" lon="6.02796">
        <ele>1793.45703125</ele>
        <time>2017-03-08T18:48:08Z</time>
      </trkpt>
      <trkpt lat="45.26701" lon="6.02803">
        <ele>1785.45703125</ele>
        <time>2017-03-08T18:48:13Z</time>
      </trkpt>
      <trkpt lat="45.26702" lon="6.02809">
        <ele>1791.45703125</ele>
        <time>2017-03-08T18:48:17Z</time>
      </trkpt>
      <trkpt lat="45.26702" lon="6.02817">
        <ele>1792.45703125</ele>
        <time>2017-03-08T18:48:22Z</time>
      </trkpt>
      <trkpt lat="45.26704" lon="6.02824">
        <ele>1790.45703125</ele>
        <time>2017-03-08T18:48:27Z</time>
      </trkpt>
      <trkpt lat="45.26705" lon="6.02831">
        <ele>1791.45703125</ele>
        <time>2017-03-08T18:48:32Z</time>
      </trkpt>
      <trkpt lat="45.26708" lon="6.02838">
        <ele>1793.45703125</ele>
        <time>2017-03-08T18:48:37Z</time>
      </trkpt>
      <trkpt lat="45.26707" lon="6.02845">
        <ele>1793.45703125</ele>
        <time>2017-03-08T18:48:42Z</time>
      </trkpt>
      <trkpt lat="45.26711" lon="6.0285">
        <ele>1796.45703125</ele>
        <time>2017-03-08T18:48:47Z</time>
      </trkpt>
      <trkpt lat="45.26711" lon="6.02857">
        <ele>1794.45703125</ele>
        <time>2017-03-08T18:48:54Z</time>
      </trkpt>
      <trkpt lat="45.26715" lon="6.02864">
        <ele>1795.45703125</ele>
        <time>2017-03-08T18:49:00Z</time>
      </trkpt>
      <trkpt lat="45.26716" lon="6.0287">
        <ele>1797.45703125</ele>
        <time>2017-03-08T18:49:06Z</time>
      </trkpt>
      <trkpt lat="45.26719" lon="6.02877">
        <ele>1798.45703125</ele>
        <time>2017-03-08T18:49:11Z</time>
      </trkpt>
      <trkpt lat="45.26722" lon="6.02883">
        <ele>1798.45703125</ele>
        <time>2017-03-08T18:49:16Z</time>
      </trkpt>
      <trkpt lat="45.26723" lon="6.0289">
        <ele>1800.45703125</ele>
        <time>2017-03-08T18:49:21Z</time>
      </trkpt>
      <trkpt lat="45.26725" lon="6.02896">
        <ele>1801.45703125</ele>
        <time>2017-03-08T18:49:28Z</time>
      </trkpt>
      <trkpt lat="45.2673" lon="6.02901">
        <ele>1800.45703125</ele>
        <time>2017-03-08T18:49:33Z</time>
      </trkpt>
      <trkpt lat="45.26733" lon="6.02907">
        <ele>1802.45703125</ele>
        <time>2017-03-08T18:49:39Z</time>
      </trkpt>
      <trkpt lat="45.26735" lon="6.02914">
        <ele>1801.45703125</ele>
        <time>2017-03-08T18:49:45Z</time>
      </trkpt>
      <trkpt lat="45.26738" lon="6.02919">
        <ele>1801.45703125</ele>
        <time>2017-03-08T18:49:50Z</time>
      </trkpt>
      <trkpt lat="45.26741" lon="6.02925">
        <ele>1801.45703125</ele>
        <time>2017-03-08T18:49:54Z</time>
      </trkpt>
      <trkpt lat="45.26744" lon="6.02931">
        <ele>1801.45703125</ele>
        <time>2017-03-08T18:49:58Z</time>
      </trkpt>
      <trkpt lat="45.26746" lon="6.02936">
        <ele>1800.4580078125</ele>
        <time>2017-03-08T18:50:02Z</time>
      </trkpt>
      <trkpt lat="45.26749" lon="6.02943">
        <ele>1800.4580078125</ele>
        <time>2017-03-08T18:50:08Z</time>
      </trkpt>
      <trkpt lat="45.26752" lon="6.02949">
        <ele>1799.4580078125</ele>
        <time>2017-03-08T18:50:13Z</time>
      </trkpt>
      <trkpt lat="45.26753" lon="6.02955">
        <ele>1801.4580078125</ele>
        <time>2017-03-08T18:50:20Z</time>
      </trkpt>
      <trkpt lat="45.26757" lon="6.02959">
        <ele>1801.4580078125</ele>
        <time>2017-03-08T18:50:23Z</time>
      </trkpt>
      <trkpt lat="45.26759" lon="6.02964">
        <ele>1802.4580078125</ele>
        <time>2017-03-08T18:50:29Z</time>
      </trkpt>
      <trkpt lat="45.26762" lon="6.02971">
        <ele>1804.4580078125</ele>
        <time>2017-03-08T18:50:34Z</time>
      </trkpt>
      <trkpt lat="45.26767" lon="6.02975">
        <ele>1805.4580078125</ele>
        <time>2017-03-08T18:50:39Z</time>
      </trkpt>
      <trkpt lat="45.2677" lon="6.0298">
        <ele>1807.4580078125</ele>
        <time>2017-03-08T18:50:44Z</time>
      </trkpt>
      <trkpt lat="45.26774" lon="6.02984">
        <ele>1808.4580078125</ele>
        <time>2017-03-08T18:50:49Z</time>
      </trkpt>
      <trkpt lat="45.26777" lon="6.0299">
        <ele>1810.4580078125</ele>
        <time>2017-03-08T18:50:57Z</time>
      </trkpt>
      <trkpt lat="45.26779" lon="6.02996">
        <ele>1808.4580078125</ele>
        <time>2017-03-08T18:51:02Z</time>
      </trkpt>
      <trkpt lat="45.26783" lon="6.03001">
        <ele>1808.4580078125</ele>
        <time>2017-03-08T18:51:08Z</time>
      </trkpt>
      <trkpt lat="45.26785" lon="6.03007">
        <ele>1807.4580078125</ele>
        <time>2017-03-08T18:51:14Z</time>
      </trkpt>
      <trkpt lat="45.26789" lon="6.03012">
        <ele>1807.4580078125</ele>
        <time>2017-03-08T18:51:18Z</time>
      </trkpt>
      <trkpt lat="45.26793" lon="6.03017">
        <ele>1807.4580078125</ele>
        <time>2017-03-08T18:51:23Z</time>
      </trkpt>
      <trkpt lat="45.26797" lon="6.0302">
        <ele>1807.4580078125</ele>
        <time>2017-03-08T18:51:27Z</time>
      </trkpt>
      <trkpt lat="45.26802" lon="6.03022">
        <ele>1808.4580078125</ele>
        <time>2017-03-08T18:51:30Z</time>
      </trkpt>
      <trkpt lat="45.26806" lon="6.03026">
        <ele>1811.4580078125</ele>
        <time>2017-03-08T18:51:43Z</time>
      </trkpt>
      <trkpt lat="45.2681" lon="6.03029">
        <ele>1812.4580078125</ele>
        <time>2017-03-08T18:51:46Z</time>
      </trkpt>
      <trkpt lat="45.26815" lon="6.03031">
        <ele>1812.4580078125</ele>
        <time>2017-03-08T18:51:49Z</time>
      </trkpt>
      <trkpt lat="45.26819" lon="6.03035">
        <ele>1813.4580078125</ele>
        <time>2017-03-08T18:51:52Z</time>
      </trkpt>
      <trkpt lat="45.26823" lon="6.03039">
        <ele>1814.4580078125</ele>
        <time>2017-03-08T18:51:58Z</time>
      </trkpt>
      <trkpt lat="45.26828" lon="6.03042">
        <ele>1812.4580078125</ele>
        <time>2017-03-08T18:52:03Z</time>
      </trkpt>
      <trkpt lat="45.26832" lon="6.03046">
        <ele>1814.4580078125</ele>
        <time>2017-03-08T18:52:09Z</time>
      </trkpt>
      <trkpt lat="45.26837" lon="6.03051">
        <ele>1812.4580078125</ele>
        <time>2017-03-08T18:52:13Z</time>
      </trkpt>
      <trkpt lat="45.26841" lon="6.03057">
        <ele>1812.4580078125</ele>
        <time>2017-03-08T18:52:18Z</time>
      </trkpt>
      <trkpt lat="45.26842" lon="6.03064">
        <ele>1814.4580078125</ele>
        <time>2017-03-08T18:52:24Z</time>
      </trkpt>
      <trkpt lat="45.26846" lon="6.03068">
        <ele>1813.4580078125</ele>
        <time>2017-03-08T18:52:30Z</time>
      </trkpt>
      <trkpt lat="45.26851" lon="6.03071">
        <ele>1816.4580078125</ele>
        <time>2017-03-08T18:52:33Z</time>
      </trkpt>
      <trkpt lat="45.26855" lon="6.03076">
        <ele>1816.4580078125</ele>
        <time>2017-03-08T18:52:37Z</time>
      </trkpt>
      <trkpt lat="45.26857" lon="6.03081">
        <ele>1817.4580078125</ele>
        <time>2017-03-08T18:52:42Z</time>
      </trkpt>
      <trkpt lat="45.2686" lon="6.03087">
        <ele>1817.4580078125</ele>
        <time>2017-03-08T18:52:47Z</time>
      </trkpt>
      <trkpt lat="45.26863" lon="6.03092">
        <ele>1818.4580078125</ele>
        <time>2017-03-08T18:52:52Z</time>
      </trkpt>
      <trkpt lat="45.26867" lon="6.03096">
        <ele>1819.4580078125</ele>
        <time>2017-03-08T18:52:56Z</time>
      </trkpt>
      <trkpt lat="45.2687" lon="6.03101">
        <ele>1821.4580078125</ele>
        <time>2017-03-08T18:53:02Z</time>
      </trkpt>
      <trkpt lat="45.26875" lon="6.03105">
        <ele>1823.4580078125</ele>
        <time>2017-03-08T18:53:07Z</time>
      </trkpt>
      <trkpt lat="45.2688" lon="6.03109">
        <ele>1824.4580078125</ele>
        <time>2017-03-08T18:53:11Z</time>
      </trkpt>
      <trkpt lat="45.26885" lon="6.03112">
        <ele>1826.4580078125</ele>
        <time>2017-03-08T18:53:17Z</time>
      </trkpt>
      <trkpt lat="45.26887" lon="6.03118">
        <ele>1825.4580078125</ele>
        <time>2017-03-08T18:53:23Z</time>
      </trkpt>
      <trkpt lat="45.2689" lon="6.03124">
        <ele>1824.4580078125</ele>
        <time>2017-03-08T18:53:29Z</time>
      </trkpt>
      <trkpt lat="45.26893" lon="6.0313">
        <ele>1824.4580078125</ele>
        <time>2017-03-08T18:53:36Z</time>
      </trkpt>
      <trkpt lat="45.26895" lon="6.03136">
        <ele>1826.4580078125</ele>
        <time>2017-03-08T18:53:41Z</time>
      </trkpt>
      <trkpt lat="45.26899" lon="6.0314">
        <ele>1826.4580078125</ele>
        <time>2017-03-08T18:53:46Z</time>
      </trkpt>
      <trkpt lat="45.26903" lon="6.03144">
        <ele>1828.4580078125</ele>
        <time>2017-03-08T18:53:51Z</time>
      </trkpt>
      <trkpt lat="45.26905" lon="6.0315">
        <ele>1827.4580078125</ele>
        <time>2017-03-08T18:53:57Z</time>
      </trkpt>
      <trkpt lat="45.26908" lon="6.03155">
        <ele>1829.4580078125</ele>
        <time>2017-03-08T18:54:01Z</time>
      </trkpt>
      <trkpt lat="45.26912" lon="6.03161">
        <ele>1831.4580078125</ele>
        <time>2017-03-08T18:54:09Z</time>
      </trkpt>
      <trkpt lat="45.26916" lon="6.03164">
        <ele>1831.4580078125</ele>
        <time>2017-03-08T18:54:14Z</time>
      </trkpt>
      <trkpt lat="45.2692" lon="6.03168">
        <ele>1832.4580078125</ele>
        <time>2017-03-08T18:54:19Z</time>
      </trkpt>
      <trkpt lat="45.26923" lon="6.03173">
        <ele>1834.4580078125</ele>
        <time>2017-03-08T18:54:25Z</time>
      </trkpt>
      <trkpt lat="45.26928" lon="6.03176">
        <ele>1835.4580078125</ele>
        <time>2017-03-08T18:54:30Z</time>
      </trkpt>
      <trkpt lat="45.26933" lon="6.0318">
        <ele>1834.4580078125</ele>
        <time>2017-03-08T18:54:36Z</time>
      </trkpt>
      <trkpt lat="45.26936" lon="6.03185">
        <ele>1820.4580078125</ele>
        <time>2017-03-08T18:54:44Z</time>
      </trkpt>
      <trkpt lat="45.2694" lon="6.0319">
        <ele>1831.4580078125</ele>
        <time>2017-03-08T18:54:50Z</time>
      </trkpt>
      <trkpt lat="45.26943" lon="6.03194">
        <ele>1835.4580078125</ele>
        <time>2017-03-08T18:55:00Z</time>
      </trkpt>
      <trkpt lat="45.26948" lon="6.03198">
        <ele>1837.4580078125</ele>
        <time>2017-03-08T18:55:05Z</time>
      </trkpt>
      <trkpt lat="45.26951" lon="6.03203">
        <ele>1839.4580078125</ele>
        <time>2017-03-08T18:55:10Z</time>
      </trkpt>
      <trkpt lat="45.26956" lon="6.03208">
        <ele>1839.4580078125</ele>
        <time>2017-03-08T18:55:15Z</time>
      </trkpt>
      <trkpt lat="45.26961" lon="6.0321">
        <ele>1840.4580078125</ele>
        <time>2017-03-08T18:55:21Z</time>
      </trkpt>
      <trkpt lat="45.26965" lon="6.03213">
        <ele>1841.4580078125</ele>
        <time>2017-03-08T18:55:29Z</time>
      </trkpt>
      <trkpt lat="45.2697" lon="6.03216">
        <ele>1842.4580078125</ele>
        <time>2017-03-08T18:55:34Z</time>
      </trkpt>
      <trkpt lat="45.26975" lon="6.03219">
        <ele>1843.4580078125</ele>
        <time>2017-03-08T18:55:39Z</time>
      </trkpt>
      <trkpt lat="45.26979" lon="6.03224">
        <ele>1844.4580078125</ele>
        <time>2017-03-08T18:55:46Z</time>
      </trkpt>
      <trkpt lat="45.26984" lon="6.03228">
        <ele>1845.4580078125</ele>
        <time>2017-03-08T18:55:53Z</time>
      </trkpt>
      <trkpt lat="45.26988" lon="6.03232">
        <ele>1847.4580078125</ele>
        <time>2017-03-08T18:55:57Z</time>
      </trkpt>
      <trkpt lat="45.26992" lon="6.03236">
        <ele>1848.4580078125</ele>
        <time>2017-03-08T18:56:02Z</time>
      </trkpt>
      <trkpt lat="45.26996" lon="6.0324">
        <ele>1849.4580078125</ele>
        <time>2017-03-08T18:56:07Z</time>
      </trkpt>
      <trkpt lat="45.27002" lon="6.03243">
        <ele>1850.4580078125</ele>
        <time>2017-03-08T18:56:15Z</time>
      </trkpt>
      <trkpt lat="45.27006" lon="6.03246">
        <ele>1850.4580078125</ele>
        <time>2017-03-08T18:56:21Z</time>
      </trkpt>
      <trkpt lat="45.2701" lon="6.03251">
        <ele>1850.4580078125</ele>
        <time>2017-03-08T18:56:27Z</time>
      </trkpt>
      <trkpt lat="45.27011" lon="6.03258">
        <ele>1851.4580078125</ele>
        <time>2017-03-08T18:56:33Z</time>
      </trkpt>
      <trkpt lat="45.27014" lon="6.03263">
        <ele>1851.4580078125</ele>
        <time>2017-03-08T18:56:38Z</time>
      </trkpt>
      <trkpt lat="45.27017" lon="6.03268">
        <ele>1853.4580078125</ele>
        <time>2017-03-08T18:56:42Z</time>
      </trkpt>
      <trkpt lat="45.2702" lon="6.03275">
        <ele>1851.458984375</ele>
        <time>2017-03-08T18:56:46Z</time>
      </trkpt>
      <trkpt lat="45.27024" lon="6.03281">
        <ele>1852.458984375</ele>
        <time>2017-03-08T18:56:48Z</time>
      </trkpt>
      <trkpt lat="45.27027" lon="6.03286">
        <ele>1854.458984375</ele>
        <time>2017-03-08T18:56:50Z</time>
      </trkpt>
      <trkpt lat="45.27032" lon="6.03293">
        <ele>1854.458984375</ele>
        <time>2017-03-08T18:56:53Z</time>
      </trkpt>
      <trkpt lat="45.27036" lon="6.03299">
        <ele>1855.458984375</ele>
        <time>2017-03-08T18:56:55Z</time>
      </trkpt>
      <trkpt lat="45.2704" lon="6.03306">
        <ele>1858.458984375</ele>
        <time>2017-03-08T18:56:58Z</time>
      </trkpt>
      <trkpt lat="45.27044" lon="6.03313">
        <ele>1859.458984375</ele>
        <time>2017-03-08T18:57:03Z</time>
      </trkpt>
      <trkpt lat="45.27049" lon="6.03317">
        <ele>1857.458984375</ele>
        <time>2017-03-08T18:57:07Z</time>
      </trkpt>
      <trkpt lat="45.27052" lon="6.03323">
        <ele>1859.458984375</ele>
        <time>2017-03-08T18:57:12Z</time>
      </trkpt>
      <trkpt lat="45.27056" lon="6.03327">
        <ele>1859.458984375</ele>
        <time>2017-03-08T18:57:34Z</time>
      </trkpt>
      <trkpt lat="45.27051" lon="6.0333">
        <ele>1860.458984375</ele>
        <time>2017-03-08T18:57:58Z</time>
      </trkpt>
      <trkpt lat="45.27045" lon="6.03328">
        <ele>1862.458984375</ele>
        <time>2017-03-08T18:58:06Z</time>
      </trkpt>
      <trkpt lat="45.2704" lon="6.03326">
        <ele>1863.458984375</ele>
        <time>2017-03-08T18:58:17Z</time>
      </trkpt>
      <trkpt lat="45.27036" lon="6.03329">
        <ele>1865.458984375</ele>
        <time>2017-03-08T18:58:25Z</time>
      </trkpt>
      <trkpt lat="45.27032" lon="6.03332">
        <ele>1864.458984375</ele>
        <time>2017-03-08T18:58:33Z</time>
      </trkpt>
      <trkpt lat="45.27028" lon="6.03337">
        <ele>1864.458984375</ele>
        <time>2017-03-08T18:58:45Z</time>
      </trkpt>
      <trkpt lat="45.27026" lon="6.03343">
        <ele>1865.458984375</ele>
        <time>2017-03-08T18:58:52Z</time>
      </trkpt>
      <trkpt lat="45.27026" lon="6.03349">
        <ele>1871.458984375</ele>
        <time>2017-03-08T18:59:02Z</time>
      </trkpt>
      <trkpt lat="45.27028" lon="6.03355">
        <ele>1874.458984375</ele>
        <time>2017-03-08T18:59:12Z</time>
      </trkpt>
      <trkpt lat="45.2703" lon="6.03361">
        <ele>1876.458984375</ele>
        <time>2017-03-08T18:59:29Z</time>
      </trkpt>
      <trkpt lat="45.27033" lon="6.03367">
        <ele>1878.458984375</ele>
        <time>2017-03-08T18:59:38Z</time>
      </trkpt>
      <trkpt lat="45.27035" lon="6.03374">
        <ele>1881.458984375</ele>
        <time>2017-03-08T18:59:48Z</time>
      </trkpt>
      <trkpt lat="45.27039" lon="6.03376">
        <ele>1885.458984375</ele>
        <time>2017-03-08T19:00:01Z</time>
      </trkpt>
      <trkpt lat="45.2704" lon="6.03383">
        <ele>1887.458984375</ele>
        <time>2017-03-08T19:00:14Z</time>
      </trkpt>
      <trkpt lat="45.27036" lon="6.03386">
        <ele>1891.458984375</ele>
        <time>2017-03-08T19:05:07Z</time>
      </trkpt>
      <trkpt lat="45.27031" lon="6.03388">
        <ele>1893.458984375</ele>
        <time>2017-03-08T19:05:19Z</time>
      </trkpt>
      <trkpt lat="45.27027" lon="6.03392">
        <ele>1894.458984375</ele>
        <time>2017-03-08T19:05:23Z</time>
      </trkpt>
      <trkpt lat="45.27025" lon="6.03398">
        <ele>1892.458984375</ele>
        <time>2017-03-08T19:05:29Z</time>
      </trkpt>
      <trkpt lat="45.2702" lon="6.034">
        <ele>1895.458984375</ele>
        <time>2017-03-08T19:05:39Z</time>
      </trkpt>
      <trkpt lat="45.27015" lon="6.03398">
        <ele>1897.458984375</ele>
        <time>2017-03-08T19:05:45Z</time>
      </trkpt>
      <trkpt lat="45.2701" lon="6.03395">
        <ele>1900.458984375</ele>
        <time>2017-03-08T19:05:52Z</time>
      </trkpt>
      <trkpt lat="45.27005" lon="6.03395">
        <ele>1899.458984375</ele>
        <time>2017-03-08T19:06:00Z</time>
      </trkpt>
      <trkpt lat="45.27" lon="6.03393">
        <ele>1898.458984375</ele>
        <time>2017-03-08T19:06:07Z</time>
      </trkpt>
      <trkpt lat="45.26996" lon="6.03396">
        <ele>1900.458984375</ele>
        <time>2017-03-08T19:06:15Z</time>
      </trkpt>
      <trkpt lat="45.26997" lon="6.03403">
        <ele>1905.458984375</ele>
        <time>2017-03-08T19:06:33Z</time>
      </trkpt>
      <trkpt lat="45.27" lon="6.03409">
        <ele>1905.458984375</ele>
        <time>2017-03-08T19:06:39Z</time>
      </trkpt>
      <trkpt lat="45.27003" lon="6.03415">
        <ele>1908.458984375</ele>
        <time>2017-03-08T19:06:51Z</time>
      </trkpt>
      <trkpt lat="45.27006" lon="6.0342">
        <ele>1912.458984375</ele>
        <time>2017-03-08T19:07:02Z</time>
      </trkpt>
      <trkpt lat="45.2701" lon="6.03426">
        <ele>1914.458984375</ele>
        <time>2017-03-08T19:07:10Z</time>
      </trkpt>
      <trkpt lat="45.27013" lon="6.0343">
        <ele>1915.458984375</ele>
        <time>2017-03-08T19:07:18Z</time>
      </trkpt>
      <trkpt lat="45.27017" lon="6.03434">
        <ele>1918.458984375</ele>
        <time>2017-03-08T19:07:27Z</time>
      </trkpt>
      <trkpt lat="45.2702" lon="6.03439">
        <ele>1917.458984375</ele>
        <time>2017-03-08T19:07:36Z</time>
      </trkpt>
      <trkpt lat="45.27017" lon="6.03444">
        <ele>1923.458984375</ele>
        <time>2017-03-08T19:08:04Z</time>
      </trkpt>
      <trkpt lat="45.27013" lon="6.03448">
        <ele>1924.458984375</ele>
        <time>2017-03-08T19:08:40Z</time>
      </trkpt>
      <trkpt lat="45.27012" lon="6.03455">
        <ele>1931.458984375</ele>
        <time>2017-03-08T19:08:51Z</time>
      </trkpt>
      <trkpt lat="45.27013" lon="6.03461">
        <ele>1931.458984375</ele>
        <time>2017-03-08T19:08:59Z</time>
      </trkpt>
      <trkpt lat="45.27017" lon="6.03465">
        <ele>1934.458984375</ele>
        <time>2017-03-08T19:09:10Z</time>
      </trkpt>
      <trkpt lat="45.27017" lon="6.03473">
        <ele>1935.458984375</ele>
        <time>2017-03-08T19:09:33Z</time>
      </trkpt>
      <trkpt lat="45.27014" lon="6.03477">
        <ele>1936.458984375</ele>
        <time>2017-03-08T19:09:44Z</time>
      </trkpt>
      <trkpt lat="45.27008" lon="6.03479">
        <ele>1939.458984375</ele>
        <time>2017-03-08T19:09:55Z</time>
      </trkpt>
      <trkpt lat="45.27002" lon="6.03479">
        <ele>1947.458984375</ele>
        <time>2017-03-08T19:09:59Z</time>
      </trkpt>
      <trkpt lat="45.26997" lon="6.03481">
        <ele>1947.458984375</ele>
        <time>2017-03-08T19:10:08Z</time>
      </trkpt>
      <trkpt lat="45.26998" lon="6.03487">
        <ele>1951.458984375</ele>
        <time>2017-03-08T19:10:31Z</time>
      </trkpt>
      <trkpt lat="45.27001" lon="6.03492">
        <ele>1952.458984375</ele>
        <time>2017-03-08T19:10:45Z</time>
      </trkpt>
      <trkpt lat="45.27003" lon="6.03497">
        <ele>1954.458984375</ele>
        <time>2017-03-08T19:10:51Z</time>
      </trkpt>
      <trkpt lat="45.27007" lon="6.03502">
        <ele>1957.458984375</ele>
        <time>2017-03-08T19:11:02Z</time>
      </trkpt>
      <trkpt lat="45.27011" lon="6.03506">
        <ele>1960.458984375</ele>
        <time>2017-03-08T19:11:11Z</time>
      </trkpt>
      <trkpt lat="45.27014" lon="6.03511">
        <ele>1961.458984375</ele>
        <time>2017-03-08T19:11:21Z</time>
      </trkpt>
      <trkpt lat="45.27018" lon="6.03515">
        <ele>1962.458984375</ele>
        <time>2017-03-08T19:11:31Z</time>
      </trkpt>
      <trkpt lat="45.27021" lon="6.03521">
        <ele>1965.458984375</ele>
        <time>2017-03-08T19:11:40Z</time>
      </trkpt>
      <trkpt lat="45.27022" lon="6.03528">
        <ele>1964.458984375</ele>
        <time>2017-03-08T19:11:56Z</time>
      </trkpt>
      <trkpt lat="45.27018" lon="6.03527">
        <ele>1967.458984375</ele>
        <time>2017-03-08T19:12:05Z</time>
      </trkpt>
      <trkpt lat="45.27018" lon="6.03534">
        <ele>1970.458984375</ele>
        <time>2017-03-08T19:12:20Z</time>
      </trkpt>
      <trkpt lat="45.27021" lon="6.0354">
        <ele>1971.458984375</ele>
        <time>2017-03-08T19:12:27Z</time>
      </trkpt>
      <trkpt lat="45.27025" lon="6.03544">
        <ele>1977.458984375</ele>
        <time>2017-03-08T19:12:38Z</time>
      </trkpt>
      <trkpt lat="45.27028" lon="6.03549">
        <ele>1978.458984375</ele>
        <time>2017-03-08T19:12:49Z</time>
      </trkpt>
      <trkpt lat="45.2703" lon="6.03555">
        <ele>1981.458984375</ele>
        <time>2017-03-08T19:13:03Z</time>
      </trkpt>
      <trkpt lat="45.27028" lon="6.0356">
        <ele>1980.458984375</ele>
        <time>2017-03-08T19:13:27Z</time>
      </trkpt>
      <trkpt lat="45.27023" lon="6.03563">
        <ele>1982.458984375</ele>
        <time>2017-03-08T19:13:41Z</time>
      </trkpt>
      <trkpt lat="45.27027" lon="6.03567">
        <ele>1988.458984375</ele>
        <time>2017-03-08T19:13:52Z</time>
      </trkpt>
      <trkpt lat="45.2703" lon="6.03573">
        <ele>1990.458984375</ele>
        <time>2017-03-08T19:14:04Z</time>
      </trkpt>
      <trkpt lat="45.27033" lon="6.03578">
        <ele>1991.458984375</ele>
        <time>2017-03-08T19:14:13Z</time>
      </trkpt>
      <trkpt lat="45.2703" lon="6.03583">
        <ele>1996.458984375</ele>
        <time>2017-03-08T19:14:36Z</time>
      </trkpt>
      <trkpt lat="45.27026" lon="6.03585">
        <ele>1998.458984375</ele>
        <time>2017-03-08T19:21:09Z</time>
      </trkpt>
      <trkpt lat="45.27022" lon="6.03588">
        <ele>1996.458984375</ele>
        <time>2017-03-08T19:21:53Z</time>
      </trkpt>
      <trkpt lat="45.27016" lon="6.0359">
        <ele>1999.458984375</ele>
        <time>2017-03-08T19:22:02Z</time>
      </trkpt>
      <trkpt lat="45.27012" lon="6.0359">
        <ele>2001.458984375</ele>
        <time>2017-03-08T19:22:07Z</time>
      </trkpt>
      <trkpt lat="45.27007" lon="6.03589">
        <ele>2002.458984375</ele>
        <time>2017-03-08T19:22:14Z</time>
      </trkpt>
      <trkpt lat="45.27002" lon="6.0359">
        <ele>2004.458984375</ele>
        <time>2017-03-08T19:22:22Z</time>
      </trkpt>
      <trkpt lat="45.26997" lon="6.03592">
        <ele>2004.458984375</ele>
        <time>2017-03-08T19:22:27Z</time>
      </trkpt>
      <trkpt lat="45.26992" lon="6.03594">
        <ele>2004.458984375</ele>
        <time>2017-03-08T19:22:33Z</time>
      </trkpt>
      <trkpt lat="45.26988" lon="6.03597">
        <ele>2005.458984375</ele>
        <time>2017-03-08T19:22:39Z</time>
      </trkpt>
      <trkpt lat="45.26983" lon="6.03598">
        <ele>2006.458984375</ele>
        <time>2017-03-08T19:22:44Z</time>
      </trkpt>
      <trkpt lat="45.26979" lon="6.03601">
        <ele>2008.458984375</ele>
        <time>2017-03-08T19:22:49Z</time>
      </trkpt>
      <trkpt lat="45.26974" lon="6.03601">
        <ele>2009.458984375</ele>
        <time>2017-03-08T19:22:54Z</time>
      </trkpt>
      <trkpt lat="45.2697" lon="6.03603">
        <ele>2009.458984375</ele>
        <time>2017-03-08T19:22:59Z</time>
      </trkpt>
      <trkpt lat="45.26965" lon="6.03606">
        <ele>2011.458984375</ele>
        <time>2017-03-08T19:23:04Z</time>
      </trkpt>
      <trkpt lat="45.2696" lon="6.03608">
        <ele>2012.458984375</ele>
        <time>2017-03-08T19:23:10Z</time>
      </trkpt>
      <trkpt lat="45.26956" lon="6.0361">
        <ele>2014.458984375</ele>
        <time>2017-03-08T19:23:17Z</time>
      </trkpt>
      <trkpt lat="45.26951" lon="6.03611">
        <ele>2014.458984375</ele>
        <time>2017-03-08T19:23:24Z</time>
      </trkpt>
      <trkpt lat="45.26947" lon="6.03612">
        <ele>2016.458984375</ele>
        <time>2017-03-08T19:23:30Z</time>
      </trkpt>
      <trkpt lat="45.26942" lon="6.03611">
        <ele>2015.458984375</ele>
        <time>2017-03-08T19:23:35Z</time>
      </trkpt>
      <trkpt lat="45.26937" lon="6.03613">
        <ele>2017.458984375</ele>
        <time>2017-03-08T19:23:43Z</time>
      </trkpt>
      <trkpt lat="45.26932" lon="6.03611">
        <ele>2019.458984375</ele>
        <time>2017-03-08T19:23:49Z</time>
      </trkpt>
      <trkpt lat="45.26928" lon="6.03614">
        <ele>2020.458984375</ele>
        <time>2017-03-08T19:23:57Z</time>
      </trkpt>
      <trkpt lat="45.26923" lon="6.03615">
        <ele>2020.458984375</ele>
        <time>2017-03-08T19:24:03Z</time>
      </trkpt>
      <trkpt lat="45.26918" lon="6.03613">
        <ele>2021.458984375</ele>
        <time>2017-03-08T19:24:07Z</time>
      </trkpt>
      <trkpt lat="45.26913" lon="6.03615">
        <ele>2024.458984375</ele>
        <time>2017-03-08T19:24:13Z</time>
      </trkpt>
      <trkpt lat="45.26908" lon="6.03616">
        <ele>2026.458984375</ele>
        <time>2017-03-08T19:24:16Z</time>
      </trkpt>
      <trkpt lat="45.26903" lon="6.03618">
        <ele>2027.458984375</ele>
        <time>2017-03-08T19:24:23Z</time>
      </trkpt>
      <trkpt lat="45.26897" lon="6.03617">
        <ele>2027.458984375</ele>
        <time>2017-03-08T19:24:26Z</time>
      </trkpt>
      <trkpt lat="45.26893" lon="6.03619">
        <ele>2026.458984375</ele>
        <time>2017-03-08T19:24:31Z</time>
      </trkpt>
      <trkpt lat="45.26887" lon="6.03621">
        <ele>2024.458984375</ele>
        <time>2017-03-08T19:24:39Z</time>
      </trkpt>
      <trkpt lat="45.26881" lon="6.0362">
        <ele>2025.458984375</ele>
        <time>2017-03-08T19:24:47Z</time>
      </trkpt>
      <trkpt lat="45.26877" lon="6.03618">
        <ele>2028.458984375</ele>
        <time>2017-03-08T19:24:52Z</time>
      </trkpt>
      <trkpt lat="45.26872" lon="6.03617">
        <ele>2028.458984375</ele>
        <time>2017-03-08T19:24:59Z</time>
      </trkpt>
      <trkpt lat="45.26867" lon="6.03621">
        <ele>2029.458984375</ele>
        <time>2017-03-08T19:25:05Z</time>
      </trkpt>
      <trkpt lat="45.26862" lon="6.03621">
        <ele>2031.458984375</ele>
        <time>2017-03-08T19:25:13Z</time>
      </trkpt>
      <trkpt lat="45.26857" lon="6.03622">
        <ele>2033.458984375</ele>
        <time>2017-03-08T19:25:18Z</time>
      </trkpt>
      <trkpt lat="45.26852" lon="6.03623">
        <ele>2037.458984375</ele>
        <time>2017-03-08T19:25:24Z</time>
      </trkpt>
      <trkpt lat="45.26847" lon="6.03623">
        <ele>2038.458984375</ele>
        <time>2017-03-08T19:25:32Z</time>
      </trkpt>
      <trkpt lat="45.26843" lon="6.03625">
        <ele>2037.458984375</ele>
        <time>2017-03-08T19:25:39Z</time>
      </trkpt>
      <trkpt lat="45.26838" lon="6.03627">
        <ele>2039.458984375</ele>
        <time>2017-03-08T19:25:59Z</time>
      </trkpt>
      <trkpt lat="45.26834" lon="6.03627">
        <ele>2040.458984375</ele>
        <time>2017-03-08T19:26:04Z</time>
      </trkpt>
      <trkpt lat="45.26827" lon="6.03629">
        <ele>2042.458984375</ele>
        <time>2017-03-08T19:26:11Z</time>
      </trkpt>
      <trkpt lat="45.26826" lon="6.03635">
        <ele>2040.458984375</ele>
        <time>2017-03-08T19:26:18Z</time>
      </trkpt>
      <trkpt lat="45.26821" lon="6.03638">
        <ele>2042.458984375</ele>
        <time>2017-03-08T19:26:25Z</time>
      </trkpt>
      <trkpt lat="45.26816" lon="6.0364">
        <ele>2042.458984375</ele>
        <time>2017-03-08T19:26:32Z</time>
      </trkpt>
      <trkpt lat="45.26811" lon="6.03642">
        <ele>2043.458984375</ele>
        <time>2017-03-08T19:26:38Z</time>
      </trkpt>
      <trkpt lat="45.26807" lon="6.03646">
        <ele>2046.458984375</ele>
        <time>2017-03-08T19:26:45Z</time>
      </trkpt>
      <trkpt lat="45.268" lon="6.03647">
        <ele>2047.458984375</ele>
        <time>2017-03-08T19:26:48Z</time>
      </trkpt>
      <trkpt lat="45.26796" lon="6.03652">
        <ele>2049.458984375</ele>
        <time>2017-03-08T19:27:00Z</time>
      </trkpt>
      <trkpt lat="45.26791" lon="6.03655">
        <ele>2051.458984375</ele>
        <time>2017-03-08T19:27:06Z</time>
      </trkpt>
      <trkpt lat="45.26782" lon="6.03647">
        <ele>2049.458984375</ele>
        <time>2017-03-08T19:29:02Z</time>
      </trkpt>
      <trkpt lat="45.26775" lon="6.03638">
        <ele>2047.458984375</ele>
        <time>2017-03-08T19:29:04Z</time>
      </trkpt>
      <trkpt lat="45.26769" lon="6.03632">
        <ele>2048.458984375</ele>
        <time>2017-03-08T19:29:06Z</time>
      </trkpt>
      <trkpt lat="45.26763" lon="6.0363">
        <ele>2048.4580078125</ele>
        <time>2017-03-08T19:29:09Z</time>
      </trkpt>
      <trkpt lat="45.26758" lon="6.03627">
        <ele>2046.4580078125</ele>
        <time>2017-03-08T19:30:24Z</time>
      </trkpt>
      <trkpt lat="45.26754" lon="6.03621">
        <ele>2045.4580078125</ele>
        <time>2017-03-08T19:30:28Z</time>
      </trkpt>
      <trkpt lat="45.2675" lon="6.03616">
        <ele>2043.4580078125</ele>
        <time>2017-03-08T19:30:31Z</time>
      </trkpt>
      <trkpt lat="45.26745" lon="6.03608">
        <ele>2042.4580078125</ele>
        <time>2017-03-08T19:30:34Z</time>
      </trkpt>
      <trkpt lat="45.26741" lon="6.03602">
        <ele>2042.4580078125</ele>
        <time>2017-03-08T19:30:36Z</time>
      </trkpt>
      <trkpt lat="45.26737" lon="6.03594">
        <ele>2040.4580078125</ele>
        <time>2017-03-08T19:30:38Z</time>
      </trkpt>
      <trkpt lat="45.26733" lon="6.03587">
        <ele>2039.4580078125</ele>
        <time>2017-03-08T19:30:40Z</time>
      </trkpt>
      <trkpt lat="45.26729" lon="6.03579">
        <ele>2038.4580078125</ele>
        <time>2017-03-08T19:30:42Z</time>
      </trkpt>
      <trkpt lat="45.26725" lon="6.03573">
        <ele>2037.4580078125</ele>
        <time>2017-03-08T19:30:44Z</time>
      </trkpt>
      <trkpt lat="45.26722" lon="6.03566">
        <ele>2037.4580078125</ele>
        <time>2017-03-08T19:30:46Z</time>
      </trkpt>
      <trkpt lat="45.26718" lon="6.03558">
        <ele>2035.4580078125</ele>
        <time>2017-03-08T19:30:48Z</time>
      </trkpt>
      <trkpt lat="45.26715" lon="6.03551">
        <ele>2035.4580078125</ele>
        <time>2017-03-08T19:30:50Z</time>
      </trkpt>
      <trkpt lat="45.2671" lon="6.03546">
        <ele>2034.4580078125</ele>
        <time>2017-03-08T19:30:52Z</time>
      </trkpt>
      <trkpt lat="45.26706" lon="6.03541">
        <ele>2033.4580078125</ele>
        <time>2017-03-08T19:30:54Z</time>
      </trkpt>
      <trkpt lat="45.26702" lon="6.03537">
        <ele>2034.4580078125</ele>
        <time>2017-03-08T19:30:56Z</time>
      </trkpt>
      <trkpt lat="45.26699" lon="6.03533">
        <ele>2034.4580078125</ele>
        <time>2017-03-08T19:30:59Z</time>
      </trkpt>
      <trkpt lat="45.26693" lon="6.03529">
        <ele>2035.4580078125</ele>
        <time>2017-03-08T19:31:04Z</time>
      </trkpt>
      <trkpt lat="45.26682" lon="6.03525">
        <ele>2037.4580078125</ele>
        <time>2017-03-08T19:31:10Z</time>
      </trkpt>
      <trkpt lat="45.26678" lon="6.03522">
        <ele>2036.4580078125</ele>
        <time>2017-03-08T19:31:14Z</time>
      </trkpt>
      <trkpt lat="45.26673" lon="6.03521">
        <ele>2038.4580078125</ele>
        <time>2017-03-08T19:31:19Z</time>
      </trkpt>
      <trkpt lat="45.26668" lon="6.03521">
        <ele>2038.4580078125</ele>
        <time>2017-03-08T19:31:24Z</time>
      </trkpt>
      <trkpt lat="45.26663" lon="6.03521">
        <ele>2037.4580078125</ele>
        <time>2017-03-08T19:31:34Z</time>
      </trkpt>
      <trkpt lat="45.26658" lon="6.03518">
        <ele>2037.4580078125</ele>
        <time>2017-03-08T19:31:37Z</time>
      </trkpt>
      <trkpt lat="45.26654" lon="6.03515">
        <ele>2040.4580078125</ele>
        <time>2017-03-08T19:31:43Z</time>
      </trkpt>
      <trkpt lat="45.2665" lon="6.03518">
        <ele>2042.4580078125</ele>
        <time>2017-03-08T19:31:50Z</time>
      </trkpt>
      <trkpt lat="45.26647" lon="6.03523">
        <ele>2041.4580078125</ele>
        <time>2017-03-08T19:31:58Z</time>
      </trkpt>
      <trkpt lat="45.26642" lon="6.03521">
        <ele>2042.4580078125</ele>
        <time>2017-03-08T19:32:04Z</time>
      </trkpt>
      <trkpt lat="45.26638" lon="6.03518">
        <ele>2043.4580078125</ele>
        <time>2017-03-08T19:32:12Z</time>
      </trkpt>
      <trkpt lat="45.26633" lon="6.03516">
        <ele>2044.4580078125</ele>
        <time>2017-03-08T19:32:17Z</time>
      </trkpt>
      <trkpt lat="45.26629" lon="6.03515">
        <ele>2046.4580078125</ele>
        <time>2017-03-08T19:32:23Z</time>
      </trkpt>
      <trkpt lat="45.26625" lon="6.03511">
        <ele>2048.4580078125</ele>
        <time>2017-03-08T19:32:30Z</time>
      </trkpt>
      <trkpt lat="45.26621" lon="6.03506">
        <ele>2046.4580078125</ele>
        <time>2017-03-08T19:32:35Z</time>
      </trkpt>
      <trkpt lat="45.26616" lon="6.03506">
        <ele>2050.4580078125</ele>
        <time>2017-03-08T19:32:54Z</time>
      </trkpt>
      <trkpt lat="45.2661" lon="6.03505">
        <ele>2054.4580078125</ele>
        <time>2017-03-08T19:33:09Z</time>
      </trkpt>
      <trkpt lat="45.26606" lon="6.03503">
        <ele>2053.4580078125</ele>
        <time>2017-03-08T19:33:28Z</time>
      </trkpt>
      <trkpt lat="45.266" lon="6.03508">
        <ele>2056.4580078125</ele>
        <time>2017-03-08T19:33:38Z</time>
      </trkpt>
      <trkpt lat="45.26595" lon="6.03506">
        <ele>2055.4580078125</ele>
        <time>2017-03-08T19:33:48Z</time>
      </trkpt>
      <trkpt lat="45.26592" lon="6.035">
        <ele>2054.4580078125</ele>
        <time>2017-03-08T19:33:56Z</time>
      </trkpt>
      <trkpt lat="45.2659" lon="6.03494">
        <ele>2055.4580078125</ele>
        <time>2017-03-08T19:34:07Z</time>
      </trkpt>
      <trkpt lat="45.26585" lon="6.03491">
        <ele>2059.4580078125</ele>
        <time>2017-03-08T19:34:13Z</time>
      </trkpt>
      <trkpt lat="45.26581" lon="6.03489">
        <ele>2063.4580078125</ele>
        <time>2017-03-08T19:34:27Z</time>
      </trkpt>
      <trkpt lat="45.26577" lon="6.03494">
        <ele>2067.4580078125</ele>
        <time>2017-03-08T19:34:51Z</time>
      </trkpt>
      <trkpt lat="45.26574" lon="6.03499">
        <ele>2067.4580078125</ele>
        <time>2017-03-08T19:34:56Z</time>
      </trkpt>
      <trkpt lat="45.26569" lon="6.03501">
        <ele>2068.4580078125</ele>
        <time>2017-03-08T19:35:02Z</time>
      </trkpt>
      <trkpt lat="45.26565" lon="6.03497">
        <ele>2070.4580078125</ele>
        <time>2017-03-08T19:35:10Z</time>
      </trkpt>
      <trkpt lat="45.26561" lon="6.03495">
        <ele>2070.4580078125</ele>
        <time>2017-03-08T19:35:17Z</time>
      </trkpt>
      <trkpt lat="45.26556" lon="6.03495">
        <ele>2069.4580078125</ele>
        <time>2017-03-08T19:35:21Z</time>
      </trkpt>
      <trkpt lat="45.26552" lon="6.03493">
        <ele>2069.4580078125</ele>
        <time>2017-03-08T19:35:28Z</time>
      </trkpt>
      <trkpt lat="45.26547" lon="6.03491">
        <ele>2072.4580078125</ele>
        <time>2017-03-08T19:35:33Z</time>
      </trkpt>
      <trkpt lat="45.26543" lon="6.03485">
        <ele>2071.4580078125</ele>
        <time>2017-03-08T19:35:39Z</time>
      </trkpt>
      <trkpt lat="45.26539" lon="6.03483">
        <ele>2070.4580078125</ele>
        <time>2017-03-08T19:35:43Z</time>
      </trkpt>
      <trkpt lat="45.26534" lon="6.03478">
        <ele>2071.4580078125</ele>
        <time>2017-03-08T19:35:50Z</time>
      </trkpt>
      <trkpt lat="45.26529" lon="6.03474">
        <ele>2067.4580078125</ele>
        <time>2017-03-08T19:35:54Z</time>
      </trkpt>
      <trkpt lat="45.26525" lon="6.03468">
        <ele>2073.4580078125</ele>
        <time>2017-03-08T19:36:02Z</time>
      </trkpt>
      <trkpt lat="45.26521" lon="6.03462">
        <ele>2073.4580078125</ele>
        <time>2017-03-08T19:36:07Z</time>
      </trkpt>
      <trkpt lat="45.26517" lon="6.03455">
        <ele>2073.4580078125</ele>
        <time>2017-03-08T19:36:25Z</time>
      </trkpt>
      <trkpt lat="45.26514" lon="6.03448">
        <ele>2075.4580078125</ele>
        <time>2017-03-08T19:36:31Z</time>
      </trkpt>
      <trkpt lat="45.26511" lon="6.03444">
        <ele>2078.4580078125</ele>
        <time>2017-03-08T19:37:28Z</time>
      </trkpt>
      <trkpt lat="45.26506" lon="6.03445">
        <ele>2082.4580078125</ele>
        <time>2017-03-08T19:50:47Z</time>
      </trkpt>
      <trkpt lat="45.26501" lon="6.03445">
        <ele>2080.4580078125</ele>
        <time>2017-03-08T19:50:51Z</time>
      </trkpt>
      <trkpt lat="45.26505" lon="6.03442">
        <ele>2080.4580078125</ele>
        <time>2017-03-08T19:51:24Z</time>
      </trkpt>
      <trkpt lat="45.26509" lon="6.03444">
        <ele>2078.4580078125</ele>
        <time>2017-03-08T20:00:47Z</time>
      </trkpt>
      <trkpt lat="45.26513" lon="6.03447">
        <ele>2077.4580078125</ele>
        <time>2017-03-08T20:01:07Z</time>
      </trkpt>
      <trkpt lat="45.26517" lon="6.0345">
        <ele>2076.4580078125</ele>
        <time>2017-03-08T20:01:09Z</time>
      </trkpt>
      <trkpt lat="45.2652" lon="6.03456">
        <ele>2074.4580078125</ele>
        <time>2017-03-08T20:01:11Z</time>
      </trkpt>
      <trkpt lat="45.26523" lon="6.03461">
        <ele>2073.4580078125</ele>
        <time>2017-03-08T20:01:23Z</time>
      </trkpt>
      <trkpt lat="45.26527" lon="6.0347">
        <ele>2073.4580078125</ele>
        <time>2017-03-08T20:01:26Z</time>
      </trkpt>
      <trkpt lat="45.26533" lon="6.03479">
        <ele>2072.4580078125</ele>
        <time>2017-03-08T20:01:28Z</time>
      </trkpt>
      <trkpt lat="45.2654" lon="6.03484">
        <ele>2072.4580078125</ele>
        <time>2017-03-08T20:01:30Z</time>
      </trkpt>
      <trkpt lat="45.26545" lon="6.03488">
        <ele>2074.4580078125</ele>
        <time>2017-03-08T20:01:32Z</time>
      </trkpt>
      <trkpt lat="45.2655" lon="6.03491">
        <ele>2073.4580078125</ele>
        <time>2017-03-08T20:01:37Z</time>
      </trkpt>
      <trkpt lat="45.26556" lon="6.03494">
        <ele>2074.4580078125</ele>
        <time>2017-03-08T20:01:39Z</time>
      </trkpt>
      <trkpt lat="45.26563" lon="6.03496">
        <ele>2073.4580078125</ele>
        <time>2017-03-08T20:01:41Z</time>
      </trkpt>
      <trkpt lat="45.26569" lon="6.03498">
        <ele>2071.4580078125</ele>
        <time>2017-03-08T20:01:43Z</time>
      </trkpt>
      <trkpt lat="45.26573" lon="6.0349">
        <ele>2068.4580078125</ele>
        <time>2017-03-08T20:01:45Z</time>
      </trkpt>
      <trkpt lat="45.26579" lon="6.03481">
        <ele>2063.4580078125</ele>
        <time>2017-03-08T20:01:47Z</time>
      </trkpt>
      <trkpt lat="45.26586" lon="6.03482">
        <ele>2062.4580078125</ele>
        <time>2017-03-08T20:01:49Z</time>
      </trkpt>
      <trkpt lat="45.26591" lon="6.03481">
        <ele>2062.4580078125</ele>
        <time>2017-03-08T20:01:52Z</time>
      </trkpt>
      <trkpt lat="45.26598" lon="6.03477">
        <ele>2052.4580078125</ele>
        <time>2017-03-08T20:06:03Z</time>
      </trkpt>
      <trkpt lat="45.26609" lon="6.03473">
        <ele>2052.4580078125</ele>
        <time>2017-03-08T20:06:05Z</time>
      </trkpt>
      <trkpt lat="45.2662" lon="6.03462">
        <ele>2049.4580078125</ele>
        <time>2017-03-08T20:06:07Z</time>
      </trkpt>
      <trkpt lat="45.26628" lon="6.03457">
        <ele>2048.4580078125</ele>
        <time>2017-03-08T20:06:08Z</time>
      </trkpt>
      <trkpt lat="45.26637" lon="6.0344">
        <ele>2042.4580078125</ele>
        <time>2017-03-08T20:06:10Z</time>
      </trkpt>
      <trkpt lat="45.26645" lon="6.03419">
        <ele>2032.4580078125</ele>
        <time>2017-03-08T20:06:13Z</time>
      </trkpt>
      <trkpt lat="45.26639" lon="6.03411">
        <ele>2029.4580078125</ele>
        <time>2017-03-08T20:06:15Z</time>
      </trkpt>
      <trkpt lat="45.26634" lon="6.03408">
        <ele>2029.4580078125</ele>
        <time>2017-03-08T20:06:17Z</time>
      </trkpt>
      <trkpt lat="45.26628" lon="6.03406">
        <ele>2026.4580078125</ele>
        <time>2017-03-08T20:09:35Z</time>
      </trkpt>
      <trkpt lat="45.2663" lon="6.03398">
        <ele>2019.4580078125</ele>
        <time>2017-03-08T20:09:41Z</time>
      </trkpt>
      <trkpt lat="45.26626" lon="6.03395">
        <ele>2013.4580078125</ele>
        <time>2017-03-08T20:09:52Z</time>
      </trkpt>
      <trkpt lat="45.2662" lon="6.03396">
        <ele>2013.4580078125</ele>
        <time>2017-03-08T20:09:54Z</time>
      </trkpt>
      <trkpt lat="45.26617" lon="6.03386">
        <ele>2013.4580078125</ele>
        <time>2017-03-08T20:10:06Z</time>
      </trkpt>
      <trkpt lat="45.26616" lon="6.03378">
        <ele>2011.4580078125</ele>
        <time>2017-03-08T20:10:08Z</time>
      </trkpt>
      <trkpt lat="45.26612" lon="6.03373">
        <ele>2010.4580078125</ele>
        <time>2017-03-08T20:10:10Z</time>
      </trkpt>
      <trkpt lat="45.26604" lon="6.03379">
        <ele>2011.4580078125</ele>
        <time>2017-03-08T20:10:12Z</time>
      </trkpt>
      <trkpt lat="45.26599" lon="6.0338">
        <ele>2009.4580078125</ele>
        <time>2017-03-08T20:10:15Z</time>
      </trkpt>
      <trkpt lat="45.26594" lon="6.03381">
        <ele>2008.4580078125</ele>
        <time>2017-03-08T20:10:24Z</time>
      </trkpt>
      <trkpt lat="45.26588" lon="6.03381">
        <ele>2006.4580078125</ele>
        <time>2017-03-08T20:10:27Z</time>
      </trkpt>
      <trkpt lat="45.26592" lon="6.03371">
        <ele>1999.4580078125</ele>
        <time>2017-03-08T20:10:32Z</time>
      </trkpt>
      <trkpt lat="45.26588" lon="6.03367">
        <ele>1999.4580078125</ele>
        <time>2017-03-08T20:10:33Z</time>
      </trkpt>
      <trkpt lat="45.26583" lon="6.03365">
        <ele>1995.4580078125</ele>
        <time>2017-03-08T20:10:35Z</time>
      </trkpt>
      <trkpt lat="45.26587" lon="6.03357">
        <ele>1992.4580078125</ele>
        <time>2017-03-08T20:10:39Z</time>
      </trkpt>
      <trkpt lat="45.26591" lon="6.03354">
        <ele>1991.4580078125</ele>
        <time>2017-03-08T20:10:41Z</time>
      </trkpt>
      <trkpt lat="45.26594" lon="6.03347">
        <ele>1986.4580078125</ele>
        <time>2017-03-08T20:10:52Z</time>
      </trkpt>
      <trkpt lat="45.26593" lon="6.03339">
        <ele>1988.4580078125</ele>
        <time>2017-03-08T20:11:17Z</time>
      </trkpt>
      <trkpt lat="45.26594" lon="6.03331">
        <ele>1983.4580078125</ele>
        <time>2017-03-08T20:11:25Z</time>
      </trkpt>
      <trkpt lat="45.26589" lon="6.03332">
        <ele>1981.4580078125</ele>
        <time>2017-03-08T20:11:29Z</time>
      </trkpt>
      <trkpt lat="45.26593" lon="6.03327">
        <ele>1981.4580078125</ele>
        <time>2017-03-08T20:11:32Z</time>
      </trkpt>
      <trkpt lat="45.26591" lon="6.0332">
        <ele>1977.4580078125</ele>
        <time>2017-03-08T20:11:45Z</time>
      </trkpt>
      <trkpt lat="45.26592" lon="6.03311">
        <ele>1978.4580078125</ele>
        <time>2017-03-08T20:11:47Z</time>
      </trkpt>
      <trkpt lat="45.2658" lon="6.0331">
        <ele>1977.4580078125</ele>
        <time>2017-03-08T20:11:50Z</time>
      </trkpt>
      <trkpt lat="45.26578" lon="6.03304">
        <ele>1972.4580078125</ele>
        <time>2017-03-08T20:11:52Z</time>
      </trkpt>
      <trkpt lat="45.26575" lon="6.03297">
        <ele>1970.4580078125</ele>
        <time>2017-03-08T20:11:53Z</time>
      </trkpt>
      <trkpt lat="45.26578" lon="6.03288">
        <ele>1965.4580078125</ele>
        <time>2017-03-08T20:11:55Z</time>
      </trkpt>
      <trkpt lat="45.26579" lon="6.03275">
        <ele>1958.4580078125</ele>
        <time>2017-03-08T20:11:57Z</time>
      </trkpt>
      <trkpt lat="45.26583" lon="6.0326">
        <ele>1954.4580078125</ele>
        <time>2017-03-08T20:11:59Z</time>
      </trkpt>
      <trkpt lat="45.26582" lon="6.03239">
        <ele>1950.4580078125</ele>
        <time>2017-03-08T20:12:01Z</time>
      </trkpt>
      <trkpt lat="45.26579" lon="6.03217">
        <ele>1944.4580078125</ele>
        <time>2017-03-08T20:12:03Z</time>
      </trkpt>
      <trkpt lat="45.26575" lon="6.03195">
        <ele>1934.4580078125</ele>
        <time>2017-03-08T20:12:06Z</time>
      </trkpt>
      <trkpt lat="45.2657" lon="6.03193">
        <ele>1933.4580078125</ele>
        <time>2017-03-08T20:12:07Z</time>
      </trkpt>
      <trkpt lat="45.26564" lon="6.03195">
        <ele>1927.45703125</ele>
        <time>2017-03-08T20:12:10Z</time>
      </trkpt>
      <trkpt lat="45.26559" lon="6.03192">
        <ele>1917.45703125</ele>
        <time>2017-03-08T20:14:27Z</time>
      </trkpt>
      <trkpt lat="45.26556" lon="6.03185">
        <ele>1921.45703125</ele>
        <time>2017-03-08T20:14:34Z</time>
      </trkpt>
      <trkpt lat="45.26556" lon="6.03174">
        <ele>1916.45703125</ele>
        <time>2017-03-08T20:14:37Z</time>
      </trkpt>
      <trkpt lat="45.26553" lon="6.03153">
        <ele>1913.45703125</ele>
        <time>2017-03-08T20:14:39Z</time>
      </trkpt>
      <trkpt lat="45.26553" lon="6.03146">
        <ele>1910.45703125</ele>
        <time>2017-03-08T20:14:40Z</time>
      </trkpt>
      <trkpt lat="45.26547" lon="6.03127">
        <ele>1904.45703125</ele>
        <time>2017-03-08T20:14:43Z</time>
      </trkpt>
      <trkpt lat="45.26535" lon="6.03115">
        <ele>1899.45703125</ele>
        <time>2017-03-08T20:14:45Z</time>
      </trkpt>
      <trkpt lat="45.26522" lon="6.03097">
        <ele>1890.45703125</ele>
        <time>2017-03-08T20:14:47Z</time>
      </trkpt>
      <trkpt lat="45.26518" lon="6.03064">
        <ele>1883.45703125</ele>
        <time>2017-03-08T20:14:49Z</time>
      </trkpt>
      <trkpt lat="45.26517" lon="6.03038">
        <ele>1879.45703125</ele>
        <time>2017-03-08T20:14:51Z</time>
      </trkpt>
      <trkpt lat="45.26514" lon="6.03032">
        <ele>1874.45703125</ele>
        <time>2017-03-08T20:14:52Z</time>
      </trkpt>
      <trkpt lat="45.26505" lon="6.03029">
        <ele>1864.45703125</ele>
        <time>2017-03-08T20:14:54Z</time>
      </trkpt>
      <trkpt lat="45.26499" lon="6.03014">
        <ele>1863.45703125</ele>
        <time>2017-03-08T20:14:57Z</time>
      </trkpt>
      <trkpt lat="45.26492" lon="6.03">
        <ele>1861.45703125</ele>
        <time>2017-03-08T20:15:00Z</time>
      </trkpt>
      <trkpt lat="45.26496" lon="6.02997">
        <ele>1843.45703125</ele>
        <time>2017-03-08T20:15:15Z</time>
      </trkpt>
      <trkpt lat="45.26499" lon="6.02991">
        <ele>1839.45703125</ele>
        <time>2017-03-08T20:15:25Z</time>
      </trkpt>
      <trkpt lat="45.265" lon="6.02984">
        <ele>1840.45703125</ele>
        <time>2017-03-08T20:15:36Z</time>
      </trkpt>
      <trkpt lat="45.26496" lon="6.02989">
        <ele>1839.45703125</ele>
        <time>2017-03-08T20:16:02Z</time>
      </trkpt>
      <trkpt lat="45.26492" lon="6.02991">
        <ele>1839.45703125</ele>
        <time>2017-03-08T20:16:07Z</time>
      </trkpt>
      <trkpt lat="45.26486" lon="6.02991">
        <ele>1837.45703125</ele>
        <time>2017-03-08T20:16:16Z</time>
      </trkpt>
      <trkpt lat="45.26482" lon="6.02991">
        <ele>1835.45703125</ele>
        <time>2017-03-08T20:16:23Z</time>
      </trkpt>
      <trkpt lat="45.26477" lon="6.02992">
        <ele>1839.45703125</ele>
        <time>2017-03-08T20:17:36Z</time>
      </trkpt>
      <trkpt lat="45.26475" lon="6.02983">
        <ele>1843.45703125</ele>
        <time>2017-03-08T20:18:52Z</time>
      </trkpt>
      <trkpt lat="45.26475" lon="6.02976">
        <ele>1840.45703125</ele>
        <time>2017-03-08T20:18:53Z</time>
      </trkpt>
      <trkpt lat="45.26468" lon="6.02963">
        <ele>1839.45703125</ele>
        <time>2017-03-08T20:18:55Z</time>
      </trkpt>
      <trkpt lat="45.26464" lon="6.02951">
        <ele>1838.45703125</ele>
        <time>2017-03-08T20:18:57Z</time>
      </trkpt>
      <trkpt lat="45.26459" lon="6.02947">
        <ele>1839.45703125</ele>
        <time>2017-03-08T20:18:59Z</time>
      </trkpt>
      <trkpt lat="45.2646" lon="6.02941">
        <ele>1839.45703125</ele>
        <time>2017-03-08T20:19:03Z</time>
      </trkpt>
      <trkpt lat="45.26455" lon="6.02932">
        <ele>1838.45703125</ele>
        <time>2017-03-08T20:19:04Z</time>
      </trkpt>
      <trkpt lat="45.26449" lon="6.02924">
        <ele>1836.45703125</ele>
        <time>2017-03-08T20:19:05Z</time>
      </trkpt>
      <trkpt lat="45.26445" lon="6.02912">
        <ele>1834.45703125</ele>
        <time>2017-03-08T20:19:07Z</time>
      </trkpt>
      <trkpt lat="45.26453" lon="6.02895">
        <ele>1832.45703125</ele>
        <time>2017-03-08T20:19:09Z</time>
      </trkpt>
      <trkpt lat="45.26467" lon="6.02889">
        <ele>1831.45703125</ele>
        <time>2017-03-08T20:19:10Z</time>
      </trkpt>
      <trkpt lat="45.26474" lon="6.02885">
        <ele>1827.45703125</ele>
        <time>2017-03-08T20:19:11Z</time>
      </trkpt>
      <trkpt lat="45.26479" lon="6.02869">
        <ele>1821.45703125</ele>
        <time>2017-03-08T20:19:13Z</time>
      </trkpt>
      <trkpt lat="45.2648" lon="6.02856">
        <ele>1813.45703125</ele>
        <time>2017-03-08T20:19:15Z</time>
      </trkpt>
      <trkpt lat="45.26474" lon="6.02852">
        <ele>1809.45703125</ele>
        <time>2017-03-08T20:19:16Z</time>
      </trkpt>
      <trkpt lat="45.26462" lon="6.02837">
        <ele>1804.45703125</ele>
        <time>2017-03-08T20:19:18Z</time>
      </trkpt>
      <trkpt lat="45.26458" lon="6.02811">
        <ele>1799.45703125</ele>
        <time>2017-03-08T20:19:20Z</time>
      </trkpt>
      <trkpt lat="45.26453" lon="6.02817">
        <ele>1788.45703125</ele>
        <time>2017-03-08T20:21:48Z</time>
      </trkpt>
      <trkpt lat="45.26449" lon="6.02823">
        <ele>1780.45703125</ele>
        <time>2017-03-08T20:22:32Z</time>
      </trkpt>
      <trkpt lat="45.26451" lon="6.02814">
        <ele>1787.45703125</ele>
        <time>2017-03-08T20:23:07Z</time>
      </trkpt>
      <trkpt lat="45.26448" lon="6.02808">
        <ele>1790.45703125</ele>
        <time>2017-03-08T20:23:14Z</time>
      </trkpt>
      <trkpt lat="45.2644" lon="6.02803">
        <ele>1789.45703125</ele>
        <time>2017-03-08T20:23:16Z</time>
      </trkpt>
      <trkpt lat="45.26432" lon="6.02792">
        <ele>1788.45703125</ele>
        <time>2017-03-08T20:23:18Z</time>
      </trkpt>
      <trkpt lat="45.26431" lon="6.02779">
        <ele>1788.45703125</ele>
        <time>2017-03-08T20:23:19Z</time>
      </trkpt>
      <trkpt lat="45.26426" lon="6.02765">
        <ele>1789.45703125</ele>
        <time>2017-03-08T20:23:20Z</time>
      </trkpt>
      <trkpt lat="45.26421" lon="6.02754">
        <ele>1789.45703125</ele>
        <time>2017-03-08T20:23:21Z</time>
      </trkpt>
      <trkpt lat="45.26409" lon="6.02731">
        <ele>1786.45703125</ele>
        <time>2017-03-08T20:23:23Z</time>
      </trkpt>
      <trkpt lat="45.26396" lon="6.02685">
        <ele>1778.4560546875</ele>
        <time>2017-03-08T20:23:26Z</time>
      </trkpt>
      <trkpt lat="45.26391" lon="6.02675">
        <ele>1775.4560546875</ele>
        <time>2017-03-08T20:23:27Z</time>
      </trkpt>
      <trkpt lat="45.26394" lon="6.02668">
        <ele>1768.4560546875</ele>
        <time>2017-03-08T20:23:28Z</time>
      </trkpt>
      <trkpt lat="45.26401" lon="6.02645">
        <ele>1763.4560546875</ele>
        <time>2017-03-08T20:23:30Z</time>
      </trkpt>
      <trkpt lat="45.26413" lon="6.02613">
        <ele>1759.4560546875</ele>
        <time>2017-03-08T20:23:32Z</time>
      </trkpt>
      <trkpt lat="45.26418" lon="6.02593">
        <ele>1755.4560546875</ele>
        <time>2017-03-08T20:23:33Z</time>
      </trkpt>
      <trkpt lat="45.26431" lon="6.02548">
        <ele>1750.4560546875</ele>
        <time>2017-03-08T20:23:35Z</time>
      </trkpt>
      <trkpt lat="45.26438" lon="6.02541">
        <ele>1741.4560546875</ele>
        <time>2017-03-08T20:23:36Z</time>
      </trkpt>
      <trkpt lat="45.26444" lon="6.02517">
        <ele>1739.4560546875</ele>
        <time>2017-03-08T20:23:37Z</time>
      </trkpt>
      <trkpt lat="45.26454" lon="6.0248">
        <ele>1733.4560546875</ele>
        <time>2017-03-08T20:23:39Z</time>
      </trkpt>
      <trkpt lat="45.26463" lon="6.02441">
        <ele>1731.4560546875</ele>
        <time>2017-03-08T20:23:41Z</time>
      </trkpt>
      <trkpt lat="45.2647" lon="6.02406">
        <ele>1729.4560546875</ele>
        <time>2017-03-08T20:23:43Z</time>
      </trkpt>
      <trkpt lat="45.26482" lon="6.02379">
        <ele>1727.4560546875</ele>
        <time>2017-03-08T20:23:45Z</time>
      </trkpt>
      <trkpt lat="45.2649" lon="6.02366">
        <ele>1726.4560546875</ele>
        <time>2017-03-08T20:23:47Z</time>
      </trkpt>
      <trkpt lat="45.26494" lon="6.02382">
        <ele>1722.4560546875</ele>
        <time>2017-03-08T20:23:48Z</time>
      </trkpt>
      <trkpt lat="45.26498" lon="6.02381">
        <ele>1721.4560546875</ele>
        <time>2017-03-08T20:23:50Z</time>
      </trkpt>
      <trkpt lat="45.26497" lon="6.0237">
        <ele>1716.4560546875</ele>
        <time>2017-03-08T20:24:17Z</time>
      </trkpt>
      <trkpt lat="45.26498" lon="6.02363">
        <ele>1714.4560546875</ele>
        <time>2017-03-08T20:24:18Z</time>
      </trkpt>
      <trkpt lat="45.26497" lon="6.02348">
        <ele>1711.4560546875</ele>
        <time>2017-03-08T20:24:20Z</time>
      </trkpt>
      <trkpt lat="45.26496" lon="6.02328">
        <ele>1709.4560546875</ele>
        <time>2017-03-08T20:24:22Z</time>
      </trkpt>
      <trkpt lat="45.26498" lon="6.02319">
        <ele>1707.4560546875</ele>
        <time>2017-03-08T20:24:23Z</time>
      </trkpt>
      <trkpt lat="45.26498" lon="6.02303">
        <ele>1706.4560546875</ele>
        <time>2017-03-08T20:24:25Z</time>
      </trkpt>
      <trkpt lat="45.26496" lon="6.02287">
        <ele>1702.4560546875</ele>
        <time>2017-03-08T20:24:27Z</time>
      </trkpt>
      <trkpt lat="45.265" lon="6.02267">
        <ele>1698.4560546875</ele>
        <time>2017-03-08T20:24:29Z</time>
      </trkpt>
      <trkpt lat="45.26511" lon="6.02249">
        <ele>1695.4560546875</ele>
        <time>2017-03-08T20:24:31Z</time>
      </trkpt>
      <trkpt lat="45.26524" lon="6.02231">
        <ele>1694.4560546875</ele>
        <time>2017-03-08T20:24:33Z</time>
      </trkpt>
      <trkpt lat="45.26542" lon="6.02226">
        <ele>1692.4560546875</ele>
        <time>2017-03-08T20:24:35Z</time>
      </trkpt>
      <trkpt lat="45.26556" lon="6.02222">
        <ele>1690.4560546875</ele>
        <time>2017-03-08T20:24:37Z</time>
      </trkpt>
      <trkpt lat="45.2656" lon="6.02209">
        <ele>1689.4560546875</ele>
        <time>2017-03-08T20:24:39Z</time>
      </trkpt>
      <trkpt lat="45.26565" lon="6.02192">
        <ele>1686.4560546875</ele>
        <time>2017-03-08T20:24:41Z</time>
      </trkpt>
      <trkpt lat="45.26571" lon="6.02168">
        <ele>1683.4560546875</ele>
        <time>2017-03-08T20:24:43Z</time>
      </trkpt>
      <trkpt lat="45.26566" lon="6.02154">
        <ele>1678.4560546875</ele>
        <time>2017-03-08T20:24:45Z</time>
      </trkpt>
      <trkpt lat="45.26554" lon="6.02143">
        <ele>1674.4560546875</ele>
        <time>2017-03-08T20:24:47Z</time>
      </trkpt>
      <trkpt lat="45.26543" lon="6.02126">
        <ele>1671.4560546875</ele>
        <time>2017-03-08T20:24:49Z</time>
      </trkpt>
      <trkpt lat="45.26529" lon="6.02108">
        <ele>1670.4560546875</ele>
        <time>2017-03-08T20:24:51Z</time>
      </trkpt>
      <trkpt lat="45.2652" lon="6.02077">
        <ele>1667.4560546875</ele>
        <time>2017-03-08T20:24:53Z</time>
      </trkpt>
      <trkpt lat="45.26512" lon="6.02043">
        <ele>1664.4560546875</ele>
        <time>2017-03-08T20:24:55Z</time>
      </trkpt>
      <trkpt lat="45.26497" lon="6.0202">
        <ele>1657.4560546875</ele>
        <time>2017-03-08T20:24:57Z</time>
      </trkpt>
      <trkpt lat="45.26494" lon="6.01996">
        <ele>1652.4560546875</ele>
        <time>2017-03-08T20:24:59Z</time>
      </trkpt>
      <trkpt lat="45.26487" lon="6.01963">
        <ele>1646.4560546875</ele>
        <time>2017-03-08T20:25:01Z</time>
      </trkpt>
      <trkpt lat="45.26483" lon="6.01926">
        <ele>1638.4560546875</ele>
        <time>2017-03-08T20:25:03Z</time>
      </trkpt>
      <trkpt lat="45.26491" lon="6.01883">
        <ele>1630.4560546875</ele>
        <time>2017-03-08T20:25:05Z</time>
      </trkpt>
      <trkpt lat="45.26498" lon="6.01837">
        <ele>1628.4560546875</ele>
        <time>2017-03-08T20:25:07Z</time>
      </trkpt>
      <trkpt lat="45.26494" lon="6.01819">
        <ele>1626.4549560547</ele>
        <time>2017-03-08T20:25:08Z</time>
      </trkpt>
      <trkpt lat="45.26496" lon="6.01803">
        <ele>1619.4549560547</ele>
        <time>2017-03-08T20:25:09Z</time>
      </trkpt>
      <trkpt lat="45.26502" lon="6.01761">
        <ele>1615.4549560547</ele>
        <time>2017-03-08T20:25:11Z</time>
      </trkpt>
      <trkpt lat="45.26509" lon="6.01729">
        <ele>1608.4549560547</ele>
        <time>2017-03-08T20:25:13Z</time>
      </trkpt>
      <trkpt lat="45.26505" lon="6.01692">
        <ele>1604.4549560547</ele>
        <time>2017-03-08T20:25:15Z</time>
      </trkpt>
      <trkpt lat="45.26504" lon="6.01675">
        <ele>1602.4549560547</ele>
        <time>2017-03-08T20:25:16Z</time>
      </trkpt>
      <trkpt lat="45.26507" lon="6.01659">
        <ele>1596.4549560547</ele>
        <time>2017-03-08T20:25:17Z</time>
      </trkpt>
      <trkpt lat="45.26503" lon="6.01629">
        <ele>1592.4549560547</ele>
        <time>2017-03-08T20:25:19Z</time>
      </trkpt>
      <trkpt lat="45.26492" lon="6.01603">
        <ele>1588.4549560547</ele>
        <time>2017-03-08T20:25:21Z</time>
      </trkpt>
      <trkpt lat="45.26478" lon="6.01587">
        <ele>1586.4549560547</ele>
        <time>2017-03-08T20:25:23Z</time>
      </trkpt>
      <trkpt lat="45.26471" lon="6.01571">
        <ele>1586.4549560547</ele>
        <time>2017-03-08T20:25:25Z</time>
      </trkpt>
      <trkpt lat="45.2646" lon="6.01563">
        <ele>1584.4549560547</ele>
        <time>2017-03-08T20:25:28Z</time>
      </trkpt>
      <trkpt lat="45.26454" lon="6.01561">
        <ele>1583.4549560547</ele>
        <time>2017-03-08T20:25:30Z</time>
      </trkpt>
      <trkpt lat="45.26448" lon="6.01563">
        <ele>1582.4549560547</ele>
        <time>2017-03-08T20:25:32Z</time>
      </trkpt>
      <trkpt lat="45.26448" lon="6.01556">
        <ele>1581.4549560547</ele>
        <time>2017-03-08T20:25:43Z</time>
      </trkpt>
      <trkpt lat="45.26452" lon="6.0156">
        <ele>1573.4549560547</ele>
        <time>2017-03-08T20:26:51Z</time>
      </trkpt>
      <trkpt lat="45.26457" lon="6.01563">
        <ele>1572.4549560547</ele>
        <time>2017-03-08T20:26:55Z</time>
      </trkpt>
      <trkpt lat="45.26463" lon="6.01564">
        <ele>1572.4549560547</ele>
        <time>2017-03-08T20:26:58Z</time>
      </trkpt>
      <trkpt lat="45.26468" lon="6.01568">
        <ele>1570.4549560547</ele>
        <time>2017-03-08T20:27:01Z</time>
      </trkpt>
      <trkpt lat="45.26472" lon="6.01573">
        <ele>1570.4549560547</ele>
        <time>2017-03-08T20:27:03Z</time>
      </trkpt>
    </trkseg>
  </trk>
</gpx>